<?xml version="1.0" encoding="UTF-8" standalone="no" ?>
<gpx xmlns="http://www.topografix.com/GPX/1/1" xmlns:xsi="http://www.w3.org/2001/XMLSchema-instance" xsi:schemaLocation="http://www.topografix.com/GPX/1/1 http://www.topografix.com/GPX/1/1/gpx.xsd" version="1.1" creator="VisuGPX - https://www.visugpx.com">
  <metadata>
    <name>Boucle de 3 jours sur les Hauts Plateaux sud du Vercors</name>
    <desc><![CDATA[Boucle au départ de Bénevise.
Jour 1 : Cabane de Chaumailloux par Tussac et la bergerie du Jardin du Roi.
Jour 2 : Cabane de Chatillon par la bergerie de Jas Neuf, le Glandasse et son sommet.
Jour 3 : retour à Bénevise par le col Gorodel et Menée.]]></desc>
  </metadata>
  <trk>
    <name><![CDATA[Cabane de Chatillon - Bénevise]]></name>
    <extensions>
      <line xmlns="http://www.topografix.com/GPX/gpx_style/0/2">
        <color>73d216</color>
        <width>4</width>
      </line>
    </extensions>
    <trkseg>
      <trkpt lat="44.72763" lon="5.49012">
        <ele>1765.12</ele>
        <time>2024-05-20T06:29:17Z</time>
        <extensions>
          <visugpx:TrkExtension xmlns:visugpx="https://www.visugpx.com/editgpx/">
            <visugpx:node>1</visugpx:node>
            </visugpx:TrkExtension>
        </extensions>
      </trkpt>
      <trkpt lat="44.72761" lon="5.49013">
        <ele>1765.12</ele>
        <time>2024-05-20T06:29:36Z</time>
      </trkpt>
      <trkpt lat="44.72753" lon="5.49018">
        <ele>1765.12</ele>
        <time>2024-05-20T06:29:51Z</time>
      </trkpt>
      <trkpt lat="44.72752" lon="5.49017">
        <ele>1765.12</ele>
        <time>2024-05-20T06:29:53Z</time>
      </trkpt>
      <trkpt lat="44.7275" lon="5.49016">
        <ele>1764.16</ele>
        <time>2024-05-20T06:29:55Z</time>
      </trkpt>
      <trkpt lat="44.72738" lon="5.49009">
        <ele>1762.71</ele>
        <time>2024-05-20T06:30:08Z</time>
      </trkpt>
      <trkpt lat="44.72726" lon="5.49003">
        <ele>1762.71</ele>
        <time>2024-05-20T06:30:22Z</time>
      </trkpt>
      <trkpt lat="44.72721" lon="5.49001">
        <ele>1764.16</ele>
        <time>2024-05-20T06:30:27Z</time>
      </trkpt>
      <trkpt lat="44.72707" lon="5.48992">
        <ele>1766.08</ele>
        <time>2024-05-20T06:30:42Z</time>
      </trkpt>
      <trkpt lat="44.72694" lon="5.48987">
        <ele>1767.52</ele>
        <time>2024-05-20T06:30:57Z</time>
      </trkpt>
      <trkpt lat="44.7268" lon="5.48985">
        <ele>1766.08</ele>
        <time>2024-05-20T06:31:09Z</time>
      </trkpt>
      <trkpt lat="44.72664" lon="5.48984">
        <ele>1765.6</ele>
        <time>2024-05-20T06:31:23Z</time>
      </trkpt>
      <trkpt lat="44.72657" lon="5.48983">
        <ele>1767.04</ele>
        <time>2024-05-20T06:31:30Z</time>
      </trkpt>
      <trkpt lat="44.72639" lon="5.48981">
        <ele>1767.04</ele>
        <time>2024-05-20T06:31:46Z</time>
      </trkpt>
      <trkpt lat="44.72622" lon="5.48982">
        <ele>1768</ele>
        <time>2024-05-20T06:32:01Z</time>
      </trkpt>
      <trkpt lat="44.72605" lon="5.48982">
        <ele>1768.48</ele>
        <time>2024-05-20T06:32:16Z</time>
      </trkpt>
      <trkpt lat="44.72598" lon="5.4898">
        <ele>1768.48</ele>
        <time>2024-05-20T06:32:30Z</time>
      </trkpt>
      <trkpt lat="44.72596" lon="5.48981">
        <ele>1768.48</ele>
        <time>2024-05-20T06:32:32Z</time>
      </trkpt>
      <trkpt lat="44.72575" lon="5.48984">
        <ele>1768.48</ele>
        <time>2024-05-20T06:32:51Z</time>
      </trkpt>
      <trkpt lat="44.72557" lon="5.48986">
        <ele>1769.44</ele>
        <time>2024-05-20T06:33:06Z</time>
      </trkpt>
      <trkpt lat="44.72538" lon="5.48987">
        <ele>1769.92</ele>
        <time>2024-05-20T06:33:23Z</time>
      </trkpt>
      <trkpt lat="44.72516" lon="5.48989">
        <ele>1770.89</ele>
        <time>2024-05-20T06:33:42Z</time>
      </trkpt>
      <trkpt lat="44.72498" lon="5.48992">
        <ele>1772.33</ele>
        <time>2024-05-20T06:33:58Z</time>
      </trkpt>
      <trkpt lat="44.72481" lon="5.48993">
        <ele>1773.29</ele>
        <time>2024-05-20T06:34:13Z</time>
      </trkpt>
      <trkpt lat="44.72466" lon="5.48995">
        <ele>1774.25</ele>
        <time>2024-05-20T06:34:27Z</time>
      </trkpt>
      <trkpt lat="44.72452" lon="5.48996">
        <ele>1776.65</ele>
        <time>2024-05-20T06:34:40Z</time>
      </trkpt>
      <trkpt lat="44.7244" lon="5.48988">
        <ele>1778.1</ele>
        <time>2024-05-20T06:34:53Z</time>
      </trkpt>
      <trkpt lat="44.7243" lon="5.48977">
        <ele>1780.02</ele>
        <time>2024-05-20T06:35:07Z</time>
      </trkpt>
      <trkpt lat="44.72417" lon="5.48964">
        <ele>1781.46</ele>
        <time>2024-05-20T06:35:23Z</time>
      </trkpt>
      <trkpt lat="44.72415" lon="5.48961">
        <ele>1781.46</ele>
        <time>2024-05-20T06:35:27Z</time>
      </trkpt>
      <trkpt lat="44.72401" lon="5.48948">
        <ele>1783.38</ele>
        <time>2024-05-20T06:35:44Z</time>
      </trkpt>
      <trkpt lat="44.72387" lon="5.48936">
        <ele>1783.86</ele>
        <time>2024-05-20T06:36:00Z</time>
      </trkpt>
      <trkpt lat="44.72375" lon="5.48924">
        <ele>1785.31</ele>
        <time>2024-05-20T06:36:15Z</time>
      </trkpt>
      <trkpt lat="44.72364" lon="5.48911">
        <ele>1787.23</ele>
        <time>2024-05-20T06:36:30Z</time>
      </trkpt>
      <trkpt lat="44.72355" lon="5.48899">
        <ele>1788.19</ele>
        <time>2024-05-20T06:36:44Z</time>
      </trkpt>
      <trkpt lat="44.72348" lon="5.48891">
        <ele>1789.63</ele>
        <time>2024-05-20T06:43:28Z</time>
      </trkpt>
      <trkpt lat="44.72345" lon="5.4889">
        <ele>1789.63</ele>
        <time>2024-05-20T06:43:39Z</time>
      </trkpt>
      <trkpt lat="44.72343" lon="5.4889">
        <ele>1789.63</ele>
        <time>2024-05-20T06:43:41Z</time>
      </trkpt>
      <trkpt lat="44.72325" lon="5.48895">
        <ele>1787.71</ele>
        <time>2024-05-20T06:44:01Z</time>
      </trkpt>
      <trkpt lat="44.72317" lon="5.48899">
        <ele>1786.75</ele>
        <time>2024-05-20T06:44:09Z</time>
      </trkpt>
      <trkpt lat="44.723" lon="5.48906">
        <ele>1784.34</ele>
        <time>2024-05-20T06:44:24Z</time>
      </trkpt>
      <trkpt lat="44.72287" lon="5.4891">
        <ele>1781.94</ele>
        <time>2024-05-20T06:44:38Z</time>
      </trkpt>
      <trkpt lat="44.72273" lon="5.48907">
        <ele>1778.58</ele>
        <time>2024-05-20T06:44:52Z</time>
      </trkpt>
      <trkpt lat="44.72256" lon="5.48912">
        <ele>1775.21</ele>
        <time>2024-05-20T06:45:08Z</time>
      </trkpt>
      <trkpt lat="44.72241" lon="5.48916">
        <ele>1772.81</ele>
        <time>2024-05-20T06:45:24Z</time>
      </trkpt>
      <trkpt lat="44.72228" lon="5.48918">
        <ele>1770.41</ele>
        <time>2024-05-20T06:45:38Z</time>
      </trkpt>
      <trkpt lat="44.72217" lon="5.48918">
        <ele>1767.04</ele>
        <time>2024-05-20T06:45:49Z</time>
      </trkpt>
      <trkpt lat="44.72193" lon="5.48926">
        <ele>1764.64</ele>
        <time>2024-05-20T06:46:11Z</time>
      </trkpt>
      <trkpt lat="44.72178" lon="5.48928">
        <ele>1761.27</ele>
        <time>2024-05-20T06:46:26Z</time>
      </trkpt>
      <trkpt lat="44.72163" lon="5.48933">
        <ele>1758.87</ele>
        <time>2024-05-20T06:46:42Z</time>
      </trkpt>
      <trkpt lat="44.72145" lon="5.48937">
        <ele>1757.43</ele>
        <time>2024-05-20T06:46:57Z</time>
      </trkpt>
      <trkpt lat="44.72127" lon="5.48943">
        <ele>1755.99</ele>
        <time>2024-05-20T06:47:13Z</time>
      </trkpt>
      <trkpt lat="44.72111" lon="5.48952">
        <ele>1755.5</ele>
        <time>2024-05-20T06:47:30Z</time>
      </trkpt>
      <trkpt lat="44.7211" lon="5.48954">
        <ele>1755.5</ele>
        <time>2024-05-20T06:47:43Z</time>
      </trkpt>
      <trkpt lat="44.7211" lon="5.48957">
        <ele>1755.02</ele>
        <time>2024-05-20T06:48:17Z</time>
      </trkpt>
      <trkpt lat="44.72111" lon="5.48964">
        <ele>1755.02</ele>
        <time>2024-05-20T06:48:33Z</time>
      </trkpt>
      <trkpt lat="44.72111" lon="5.48965">
        <ele>1755.02</ele>
        <time>2024-05-20T06:48:34Z</time>
      </trkpt>
      <trkpt lat="44.72112" lon="5.48984">
        <ele>1754.06</ele>
        <time>2024-05-20T06:48:49Z</time>
      </trkpt>
      <trkpt lat="44.72114" lon="5.49003">
        <ele>1752.62</ele>
        <time>2024-05-20T06:49:02Z</time>
      </trkpt>
      <trkpt lat="44.72117" lon="5.49019">
        <ele>1752.14</ele>
        <time>2024-05-20T06:49:16Z</time>
      </trkpt>
      <trkpt lat="44.72119" lon="5.49029">
        <ele>1752.14</ele>
        <time>2024-05-20T06:49:23Z</time>
      </trkpt>
      <trkpt lat="44.72116" lon="5.49046">
        <ele>1750.22</ele>
        <time>2024-05-20T06:49:36Z</time>
      </trkpt>
      <trkpt lat="44.72106" lon="5.49065">
        <ele>1749.74</ele>
        <time>2024-05-20T06:49:51Z</time>
      </trkpt>
      <trkpt lat="44.72104" lon="5.49072">
        <ele>1748.78</ele>
        <time>2024-05-20T06:50:04Z</time>
      </trkpt>
      <trkpt lat="44.72106" lon="5.4908">
        <ele>1748.78</ele>
        <time>2024-05-20T06:50:23Z</time>
      </trkpt>
      <trkpt lat="44.72108" lon="5.49088">
        <ele>1748.78</ele>
        <time>2024-05-20T06:50:36Z</time>
      </trkpt>
      <trkpt lat="44.72114" lon="5.49098">
        <ele>1747.81</ele>
        <time>2024-05-20T06:50:48Z</time>
      </trkpt>
      <trkpt lat="44.72121" lon="5.4911">
        <ele>1746.85</ele>
        <time>2024-05-20T06:51:01Z</time>
      </trkpt>
      <trkpt lat="44.72126" lon="5.49116">
        <ele>1746.37</ele>
        <time>2024-05-20T06:51:19Z</time>
      </trkpt>
      <trkpt lat="44.72133" lon="5.49122">
        <ele>1745.41</ele>
        <time>2024-05-20T06:51:36Z</time>
      </trkpt>
      <trkpt lat="44.72147" lon="5.49132">
        <ele>1745.41</ele>
        <time>2024-05-20T06:52:12Z</time>
      </trkpt>
      <trkpt lat="44.72147" lon="5.49132">
        <ele>1744.45</ele>
        <time>2024-05-20T06:52:34Z</time>
      </trkpt>
      <trkpt lat="44.72141" lon="5.49126">
        <ele>1743.97</ele>
        <time>2024-05-20T06:53:16Z</time>
      </trkpt>
      <trkpt lat="44.72131" lon="5.4912">
        <ele>1743.01</ele>
        <time>2024-05-20T06:55:15Z</time>
      </trkpt>
      <trkpt lat="44.72118" lon="5.49096">
        <ele>1744.93</ele>
        <time>2024-05-20T06:58:18Z</time>
      </trkpt>
      <trkpt lat="44.7211" lon="5.49082">
        <ele>1745.89</ele>
        <time>2024-05-20T06:58:32Z</time>
      </trkpt>
      <trkpt lat="44.72107" lon="5.49071">
        <ele>1746.37</ele>
        <time>2024-05-20T06:58:46Z</time>
      </trkpt>
      <trkpt lat="44.72115" lon="5.49064">
        <ele>1746.85</ele>
        <time>2024-05-20T06:58:58Z</time>
      </trkpt>
      <trkpt lat="44.72121" lon="5.49054">
        <ele>1747.33</ele>
        <time>2024-05-20T06:59:08Z</time>
      </trkpt>
      <trkpt lat="44.72124" lon="5.49028">
        <ele>1749.26</ele>
        <time>2024-05-20T06:59:25Z</time>
      </trkpt>
      <trkpt lat="44.7212" lon="5.49007">
        <ele>1750.22</ele>
        <time>2024-05-20T06:59:41Z</time>
      </trkpt>
      <trkpt lat="44.72117" lon="5.48987">
        <ele>1751.18</ele>
        <time>2024-05-20T06:59:55Z</time>
      </trkpt>
      <trkpt lat="44.72113" lon="5.48965">
        <ele>1752.14</ele>
        <time>2024-05-20T07:00:10Z</time>
      </trkpt>
      <trkpt lat="44.72111" lon="5.48954">
        <ele>1753.1</ele>
        <time>2024-05-20T07:00:27Z</time>
      </trkpt>
      <trkpt lat="44.72111" lon="5.48952">
        <ele>1753.1</ele>
        <time>2024-05-20T07:01:17Z</time>
      </trkpt>
      <trkpt lat="44.72111" lon="5.4895">
        <ele>1753.1</ele>
        <time>2024-05-20T07:01:58Z</time>
      </trkpt>
      <trkpt lat="44.72112" lon="5.48946">
        <ele>1753.1</ele>
        <time>2024-05-20T07:02:39Z</time>
      </trkpt>
      <trkpt lat="44.72114" lon="5.48945">
        <ele>1753.1</ele>
        <time>2024-05-20T07:03:05Z</time>
      </trkpt>
      <trkpt lat="44.72119" lon="5.48941">
        <ele>1752.14</ele>
        <time>2024-05-20T07:03:12Z</time>
      </trkpt>
      <trkpt lat="44.72113" lon="5.4894">
        <ele>1751.66</ele>
        <time>2024-05-20T07:03:26Z</time>
      </trkpt>
      <trkpt lat="44.7211" lon="5.48939">
        <ele>1751.18</ele>
        <time>2024-05-20T07:03:30Z</time>
      </trkpt>
      <trkpt lat="44.72103" lon="5.48937">
        <ele>1749.74</ele>
        <time>2024-05-20T07:03:38Z</time>
      </trkpt>
      <trkpt lat="44.72098" lon="5.4893">
        <ele>1747.33</ele>
        <time>2024-05-20T07:03:46Z</time>
      </trkpt>
      <trkpt lat="44.72106" lon="5.48923">
        <ele>1744.93</ele>
        <time>2024-05-20T07:04:00Z</time>
      </trkpt>
      <trkpt lat="44.7211" lon="5.48923">
        <ele>1743.49</ele>
        <time>2024-05-20T07:04:05Z</time>
      </trkpt>
      <trkpt lat="44.72122" lon="5.48915">
        <ele>1741.57</ele>
        <time>2024-05-20T07:04:22Z</time>
      </trkpt>
      <trkpt lat="44.72134" lon="5.48909">
        <ele>1739.64</ele>
        <time>2024-05-20T07:04:38Z</time>
      </trkpt>
      <trkpt lat="44.7213" lon="5.48906">
        <ele>1736.76</ele>
        <time>2024-05-20T07:04:51Z</time>
      </trkpt>
      <trkpt lat="44.72117" lon="5.48904">
        <ele>1733.39</ele>
        <time>2024-05-20T07:05:09Z</time>
      </trkpt>
      <trkpt lat="44.72107" lon="5.48902">
        <ele>1730.99</ele>
        <time>2024-05-20T07:05:24Z</time>
      </trkpt>
      <trkpt lat="44.72097" lon="5.48898">
        <ele>1728.11</ele>
        <time>2024-05-20T07:05:38Z</time>
      </trkpt>
      <trkpt lat="44.72087" lon="5.48896">
        <ele>1725.22</ele>
        <time>2024-05-20T07:05:53Z</time>
      </trkpt>
      <trkpt lat="44.72079" lon="5.4889">
        <ele>1723.3</ele>
        <time>2024-05-20T07:06:09Z</time>
      </trkpt>
      <trkpt lat="44.72087" lon="5.48883">
        <ele>1719.94</ele>
        <time>2024-05-20T07:06:23Z</time>
      </trkpt>
      <trkpt lat="44.72091" lon="5.48874">
        <ele>1717.05</ele>
        <time>2024-05-20T07:06:37Z</time>
      </trkpt>
      <trkpt lat="44.72081" lon="5.4887">
        <ele>1713.69</ele>
        <time>2024-05-20T07:06:52Z</time>
      </trkpt>
      <trkpt lat="44.72069" lon="5.48866">
        <ele>1710.8</ele>
        <time>2024-05-20T07:07:08Z</time>
      </trkpt>
      <trkpt lat="44.72066" lon="5.48863">
        <ele>1708.4</ele>
        <time>2024-05-20T07:07:14Z</time>
      </trkpt>
      <trkpt lat="44.72072" lon="5.48857">
        <ele>1706.48</ele>
        <time>2024-05-20T07:07:26Z</time>
      </trkpt>
      <trkpt lat="44.72075" lon="5.4885">
        <ele>1703.59</ele>
        <time>2024-05-20T07:07:41Z</time>
      </trkpt>
      <trkpt lat="44.72074" lon="5.4885">
        <ele>1703.59</ele>
        <time>2024-05-20T07:07:42Z</time>
      </trkpt>
      <trkpt lat="44.72062" lon="5.48844">
        <ele>1700.23</ele>
        <time>2024-05-20T07:07:55Z</time>
      </trkpt>
      <trkpt lat="44.72051" lon="5.48839">
        <ele>1698.31</ele>
        <time>2024-05-20T07:08:09Z</time>
      </trkpt>
      <trkpt lat="44.7204" lon="5.48837">
        <ele>1695.42</ele>
        <time>2024-05-20T07:08:25Z</time>
      </trkpt>
      <trkpt lat="44.7204" lon="5.48828">
        <ele>1693.5</ele>
        <time>2024-05-20T07:08:39Z</time>
      </trkpt>
      <trkpt lat="44.72046" lon="5.48825">
        <ele>1690.14</ele>
        <time>2024-05-20T07:08:50Z</time>
      </trkpt>
      <trkpt lat="44.72045" lon="5.48823">
        <ele>1690.14</ele>
        <time>2024-05-20T07:08:52Z</time>
      </trkpt>
      <trkpt lat="44.72043" lon="5.48823">
        <ele>1689.65</ele>
        <time>2024-05-20T07:08:55Z</time>
      </trkpt>
      <trkpt lat="44.72031" lon="5.48817">
        <ele>1686.29</ele>
        <time>2024-05-20T07:09:11Z</time>
      </trkpt>
      <trkpt lat="44.72035" lon="5.4881">
        <ele>1684.85</ele>
        <time>2024-05-20T07:09:23Z</time>
      </trkpt>
      <trkpt lat="44.7205" lon="5.48808">
        <ele>1681.96</ele>
        <time>2024-05-20T07:09:39Z</time>
      </trkpt>
      <trkpt lat="44.72062" lon="5.48801">
        <ele>1680.04</ele>
        <time>2024-05-20T07:09:53Z</time>
      </trkpt>
      <trkpt lat="44.72069" lon="5.48796">
        <ele>1677.64</ele>
        <time>2024-05-20T07:10:03Z</time>
      </trkpt>
      <trkpt lat="44.7208" lon="5.48791">
        <ele>1674.75</ele>
        <time>2024-05-20T07:10:19Z</time>
      </trkpt>
      <trkpt lat="44.72083" lon="5.4879">
        <ele>1673.79</ele>
        <time>2024-05-20T07:10:23Z</time>
      </trkpt>
      <trkpt lat="44.72091" lon="5.48783">
        <ele>1671.87</ele>
        <time>2024-05-20T07:10:38Z</time>
      </trkpt>
      <trkpt lat="44.72081" lon="5.48779">
        <ele>1668.51</ele>
        <time>2024-05-20T07:10:53Z</time>
      </trkpt>
      <trkpt lat="44.72082" lon="5.48773">
        <ele>1666.1</ele>
        <time>2024-05-20T07:11:04Z</time>
      </trkpt>
      <trkpt lat="44.72086" lon="5.48769">
        <ele>1663.22</ele>
        <time>2024-05-20T07:11:17Z</time>
      </trkpt>
      <trkpt lat="44.7209" lon="5.48762">
        <ele>1660.81</ele>
        <time>2024-05-20T07:11:29Z</time>
      </trkpt>
      <trkpt lat="44.72097" lon="5.4876">
        <ele>1656.97</ele>
        <time>2024-05-20T07:11:41Z</time>
      </trkpt>
      <trkpt lat="44.72098" lon="5.48751">
        <ele>1653.6</ele>
        <time>2024-05-20T07:11:53Z</time>
      </trkpt>
      <trkpt lat="44.721" lon="5.48745">
        <ele>1651.68</ele>
        <time>2024-05-20T07:12:07Z</time>
      </trkpt>
      <trkpt lat="44.72093" lon="5.48738">
        <ele>1647.84</ele>
        <time>2024-05-20T07:12:23Z</time>
      </trkpt>
      <trkpt lat="44.72095" lon="5.48736">
        <ele>1647.84</ele>
        <time>2024-05-20T07:12:26Z</time>
      </trkpt>
      <trkpt lat="44.72097" lon="5.48737">
        <ele>1647.36</ele>
        <time>2024-05-20T07:12:28Z</time>
      </trkpt>
      <trkpt lat="44.72104" lon="5.48727">
        <ele>1644.47</ele>
        <time>2024-05-20T07:12:42Z</time>
      </trkpt>
      <trkpt lat="44.72102" lon="5.48724">
        <ele>1641.59</ele>
        <time>2024-05-20T07:12:54Z</time>
      </trkpt>
      <trkpt lat="44.72094" lon="5.48721">
        <ele>1638.7</ele>
        <time>2024-05-20T07:13:07Z</time>
      </trkpt>
      <trkpt lat="44.72087" lon="5.48716">
        <ele>1635.82</ele>
        <time>2024-05-20T07:13:22Z</time>
      </trkpt>
      <trkpt lat="44.72091" lon="5.48707">
        <ele>1633.42</ele>
        <time>2024-05-20T07:13:36Z</time>
      </trkpt>
      <trkpt lat="44.72094" lon="5.48699">
        <ele>1630.53</ele>
        <time>2024-05-20T07:13:46Z</time>
      </trkpt>
      <trkpt lat="44.72099" lon="5.48693">
        <ele>1627.17</ele>
        <time>2024-05-20T07:13:58Z</time>
      </trkpt>
      <trkpt lat="44.72102" lon="5.48685">
        <ele>1624.28</ele>
        <time>2024-05-20T07:14:08Z</time>
      </trkpt>
      <trkpt lat="44.72109" lon="5.4868">
        <ele>1620.92</ele>
        <time>2024-05-20T07:14:20Z</time>
      </trkpt>
      <trkpt lat="44.72116" lon="5.48665">
        <ele>1617.56</ele>
        <time>2024-05-20T07:14:31Z</time>
      </trkpt>
      <trkpt lat="44.72123" lon="5.4866">
        <ele>1616.11</ele>
        <time>2024-05-20T07:14:42Z</time>
      </trkpt>
      <trkpt lat="44.72123" lon="5.48654">
        <ele>1612.27</ele>
        <time>2024-05-20T07:16:08Z</time>
      </trkpt>
      <trkpt lat="44.72124" lon="5.48651">
        <ele>1612.27</ele>
        <time>2024-05-20T07:16:37Z</time>
      </trkpt>
      <trkpt lat="44.72128" lon="5.48649">
        <ele>1613.71</ele>
        <time>2024-05-20T07:16:50Z</time>
      </trkpt>
      <trkpt lat="44.7214" lon="5.48639">
        <ele>1612.75</ele>
        <time>2024-05-20T07:17:06Z</time>
      </trkpt>
      <trkpt lat="44.72147" lon="5.48632">
        <ele>1610.35</ele>
        <time>2024-05-20T07:17:14Z</time>
      </trkpt>
      <trkpt lat="44.72155" lon="5.48618">
        <ele>1606.98</ele>
        <time>2024-05-20T07:17:24Z</time>
      </trkpt>
      <trkpt lat="44.72155" lon="5.48616">
        <ele>1606.98</ele>
        <time>2024-05-20T07:17:25Z</time>
      </trkpt>
      <trkpt lat="44.72161" lon="5.48606">
        <ele>1603.14</ele>
        <time>2024-05-20T07:17:35Z</time>
      </trkpt>
      <trkpt lat="44.72161" lon="5.48604">
        <ele>1602.66</ele>
        <time>2024-05-20T07:17:37Z</time>
      </trkpt>
      <trkpt lat="44.72164" lon="5.48595">
        <ele>1599.29</ele>
        <time>2024-05-20T07:17:46Z</time>
      </trkpt>
      <trkpt lat="44.72169" lon="5.48586">
        <ele>1595.93</ele>
        <time>2024-05-20T07:18:00Z</time>
      </trkpt>
      <trkpt lat="44.72172" lon="5.48575">
        <ele>1593.04</ele>
        <time>2024-05-20T07:18:08Z</time>
      </trkpt>
      <trkpt lat="44.72172" lon="5.48563">
        <ele>1589.68</ele>
        <time>2024-05-20T07:18:19Z</time>
      </trkpt>
      <trkpt lat="44.72171" lon="5.48555">
        <ele>1586.31</ele>
        <time>2024-05-20T07:18:32Z</time>
      </trkpt>
      <trkpt lat="44.7217" lon="5.48554">
        <ele>1583.91</ele>
        <time>2024-05-20T07:18:43Z</time>
      </trkpt>
      <trkpt lat="44.72173" lon="5.48549">
        <ele>1582.47</ele>
        <time>2024-05-20T07:18:48Z</time>
      </trkpt>
      <trkpt lat="44.72178" lon="5.4854">
        <ele>1579.58</ele>
        <time>2024-05-20T07:18:57Z</time>
      </trkpt>
      <trkpt lat="44.72178" lon="5.48534">
        <ele>1577.66</ele>
        <time>2024-05-20T07:19:02Z</time>
      </trkpt>
      <trkpt lat="44.72184" lon="5.48526">
        <ele>1574.3</ele>
        <time>2024-05-20T07:19:15Z</time>
      </trkpt>
      <trkpt lat="44.72182" lon="5.48515">
        <ele>1570.93</ele>
        <time>2024-05-20T07:19:25Z</time>
      </trkpt>
      <trkpt lat="44.72185" lon="5.48503">
        <ele>1567.57</ele>
        <time>2024-05-20T07:19:37Z</time>
      </trkpt>
      <trkpt lat="44.72177" lon="5.485">
        <ele>1564.68</ele>
        <time>2024-05-20T07:19:48Z</time>
      </trkpt>
      <trkpt lat="44.72166" lon="5.48504">
        <ele>1561.32</ele>
        <time>2024-05-20T07:19:59Z</time>
      </trkpt>
      <trkpt lat="44.72157" lon="5.48504">
        <ele>1557.95</ele>
        <time>2024-05-20T07:20:10Z</time>
      </trkpt>
      <trkpt lat="44.72146" lon="5.48504">
        <ele>1554.11</ele>
        <time>2024-05-20T07:20:22Z</time>
      </trkpt>
      <trkpt lat="44.72138" lon="5.48504">
        <ele>1551.22</ele>
        <time>2024-05-20T07:20:32Z</time>
      </trkpt>
      <trkpt lat="44.72131" lon="5.48504">
        <ele>1547.86</ele>
        <time>2024-05-20T07:20:43Z</time>
      </trkpt>
      <trkpt lat="44.72131" lon="5.48498">
        <ele>1544.98</ele>
        <time>2024-05-20T07:20:55Z</time>
      </trkpt>
      <trkpt lat="44.72128" lon="5.48492">
        <ele>1541.61</ele>
        <time>2024-05-20T07:21:04Z</time>
      </trkpt>
      <trkpt lat="44.72119" lon="5.48489">
        <ele>1538.25</ele>
        <time>2024-05-20T07:21:17Z</time>
      </trkpt>
      <trkpt lat="44.7211" lon="5.48489">
        <ele>1535.36</ele>
        <time>2024-05-20T07:21:31Z</time>
      </trkpt>
      <trkpt lat="44.721" lon="5.48489">
        <ele>1532.48</ele>
        <time>2024-05-20T07:21:43Z</time>
      </trkpt>
      <trkpt lat="44.72091" lon="5.48486">
        <ele>1529.11</ele>
        <time>2024-05-20T07:21:55Z</time>
      </trkpt>
      <trkpt lat="44.72089" lon="5.48482">
        <ele>1525.27</ele>
        <time>2024-05-20T07:22:07Z</time>
      </trkpt>
      <trkpt lat="44.72093" lon="5.48472">
        <ele>1521.9</ele>
        <time>2024-05-20T07:22:19Z</time>
      </trkpt>
      <trkpt lat="44.72083" lon="5.48466">
        <ele>1519.02</ele>
        <time>2024-05-20T07:22:33Z</time>
      </trkpt>
      <trkpt lat="44.72074" lon="5.48469">
        <ele>1515.66</ele>
        <time>2024-05-20T07:22:49Z</time>
      </trkpt>
      <trkpt lat="44.7206" lon="5.48473">
        <ele>1512.29</ele>
        <time>2024-05-20T07:23:03Z</time>
      </trkpt>
      <trkpt lat="44.72061" lon="5.48469">
        <ele>1509.41</ele>
        <time>2024-05-20T07:23:17Z</time>
      </trkpt>
      <trkpt lat="44.72057" lon="5.48465">
        <ele>1506.52</ele>
        <time>2024-05-20T07:23:28Z</time>
      </trkpt>
      <trkpt lat="44.72049" lon="5.48463">
        <ele>1503.16</ele>
        <time>2024-05-20T07:23:40Z</time>
      </trkpt>
      <trkpt lat="44.72039" lon="5.48464">
        <ele>1499.79</ele>
        <time>2024-05-20T07:23:54Z</time>
      </trkpt>
      <trkpt lat="44.72028" lon="5.48466">
        <ele>1498.35</ele>
        <time>2024-05-20T07:24:05Z</time>
      </trkpt>
      <trkpt lat="44.72017" lon="5.48469">
        <ele>1494.99</ele>
        <time>2024-05-20T07:24:18Z</time>
      </trkpt>
      <trkpt lat="44.72008" lon="5.48472">
        <ele>1491.62</ele>
        <time>2024-05-20T07:24:30Z</time>
      </trkpt>
      <trkpt lat="44.71995" lon="5.48484">
        <ele>1488.26</ele>
        <time>2024-05-20T07:24:46Z</time>
      </trkpt>
      <trkpt lat="44.71979" lon="5.48487">
        <ele>1484.89</ele>
        <time>2024-05-20T07:25:01Z</time>
      </trkpt>
      <trkpt lat="44.71968" lon="5.48486">
        <ele>1482.01</ele>
        <time>2024-05-20T07:25:20Z</time>
      </trkpt>
      <trkpt lat="44.71959" lon="5.48489">
        <ele>1478.65</ele>
        <time>2024-05-20T07:25:35Z</time>
      </trkpt>
      <trkpt lat="44.71957" lon="5.48494">
        <ele>1477.68</ele>
        <time>2024-05-20T07:25:49Z</time>
      </trkpt>
      <trkpt lat="44.71951" lon="5.48502">
        <ele>1474.8</ele>
        <time>2024-05-20T07:26:05Z</time>
      </trkpt>
      <trkpt lat="44.71945" lon="5.48499">
        <ele>1471.44</ele>
        <time>2024-05-20T07:26:17Z</time>
      </trkpt>
      <trkpt lat="44.71942" lon="5.4849">
        <ele>1468.55</ele>
        <time>2024-05-20T07:26:34Z</time>
      </trkpt>
      <trkpt lat="44.71937" lon="5.48484">
        <ele>1465.67</ele>
        <time>2024-05-20T07:26:49Z</time>
      </trkpt>
      <trkpt lat="44.71932" lon="5.4849">
        <ele>1461.82</ele>
        <time>2024-05-20T07:27:02Z</time>
      </trkpt>
      <trkpt lat="44.71927" lon="5.48481">
        <ele>1458.94</ele>
        <time>2024-05-20T07:27:16Z</time>
      </trkpt>
      <trkpt lat="44.71925" lon="5.48471">
        <ele>1456.05</ele>
        <time>2024-05-20T07:27:30Z</time>
      </trkpt>
      <trkpt lat="44.7192" lon="5.48461">
        <ele>1452.69</ele>
        <time>2024-05-20T07:27:44Z</time>
      </trkpt>
      <trkpt lat="44.71916" lon="5.48452">
        <ele>1450.29</ele>
        <time>2024-05-20T07:27:59Z</time>
      </trkpt>
      <trkpt lat="44.7191" lon="5.48444">
        <ele>1447.4</ele>
        <time>2024-05-20T07:28:14Z</time>
      </trkpt>
      <trkpt lat="44.71903" lon="5.48447">
        <ele>1444.04</ele>
        <time>2024-05-20T07:28:26Z</time>
      </trkpt>
      <trkpt lat="44.71899" lon="5.48433">
        <ele>1441.15</ele>
        <time>2024-05-20T07:28:40Z</time>
      </trkpt>
      <trkpt lat="44.71899" lon="5.4842">
        <ele>1437.79</ele>
        <time>2024-05-20T07:28:53Z</time>
      </trkpt>
      <trkpt lat="44.71892" lon="5.48416">
        <ele>1435.39</ele>
        <time>2024-05-20T07:29:09Z</time>
      </trkpt>
      <trkpt lat="44.71889" lon="5.48406">
        <ele>1432.98</ele>
        <time>2024-05-20T07:29:23Z</time>
      </trkpt>
      <trkpt lat="44.71885" lon="5.48402">
        <ele>1430.1</ele>
        <time>2024-05-20T07:29:36Z</time>
      </trkpt>
      <trkpt lat="44.71885" lon="5.48391">
        <ele>1427.7</ele>
        <time>2024-05-20T07:29:52Z</time>
      </trkpt>
      <trkpt lat="44.71883" lon="5.48381">
        <ele>1424.81</ele>
        <time>2024-05-20T07:30:08Z</time>
      </trkpt>
      <trkpt lat="44.71879" lon="5.4838">
        <ele>1423.37</ele>
        <time>2024-05-20T07:30:21Z</time>
      </trkpt>
      <trkpt lat="44.71875" lon="5.48378">
        <ele>1420.97</ele>
        <time>2024-05-20T07:30:33Z</time>
      </trkpt>
      <trkpt lat="44.7187" lon="5.48377">
        <ele>1418.56</ele>
        <time>2024-05-20T07:30:46Z</time>
      </trkpt>
      <trkpt lat="44.71866" lon="5.48374">
        <ele>1415.68</ele>
        <time>2024-05-20T07:32:58Z</time>
      </trkpt>
      <trkpt lat="44.71861" lon="5.48372">
        <ele>1413.28</ele>
        <time>2024-05-20T07:33:07Z</time>
      </trkpt>
      <trkpt lat="44.71861" lon="5.48369">
        <ele>1411.83</ele>
        <time>2024-05-20T07:33:11Z</time>
      </trkpt>
      <trkpt lat="44.71861" lon="5.48367">
        <ele>1411.35</ele>
        <time>2024-05-20T07:33:13Z</time>
      </trkpt>
      <trkpt lat="44.71863" lon="5.48357">
        <ele>1409.43</ele>
        <time>2024-05-20T07:33:22Z</time>
      </trkpt>
      <trkpt lat="44.71861" lon="5.4835">
        <ele>1407.03</ele>
        <time>2024-05-20T07:33:33Z</time>
      </trkpt>
      <trkpt lat="44.71852" lon="5.4835">
        <ele>1403.66</ele>
        <time>2024-05-20T07:33:45Z</time>
      </trkpt>
      <trkpt lat="44.71844" lon="5.4835">
        <ele>1400.3</ele>
        <time>2024-05-20T07:33:58Z</time>
      </trkpt>
      <trkpt lat="44.71838" lon="5.48351">
        <ele>1397.89</ele>
        <time>2024-05-20T07:34:13Z</time>
      </trkpt>
      <trkpt lat="44.71831" lon="5.48352">
        <ele>1395.01</ele>
        <time>2024-05-20T07:34:27Z</time>
      </trkpt>
      <trkpt lat="44.71826" lon="5.48361">
        <ele>1391.65</ele>
        <time>2024-05-20T07:34:39Z</time>
      </trkpt>
      <trkpt lat="44.71825" lon="5.48364">
        <ele>1391.17</ele>
        <time>2024-05-20T07:34:42Z</time>
      </trkpt>
      <trkpt lat="44.71822" lon="5.48381">
        <ele>1388.76</ele>
        <time>2024-05-20T07:34:55Z</time>
      </trkpt>
      <trkpt lat="44.71819" lon="5.48401">
        <ele>1386.36</ele>
        <time>2024-05-20T07:35:08Z</time>
      </trkpt>
      <trkpt lat="44.71816" lon="5.4842">
        <ele>1383.47</ele>
        <time>2024-05-20T07:35:23Z</time>
      </trkpt>
      <trkpt lat="44.71814" lon="5.48439">
        <ele>1380.11</ele>
        <time>2024-05-20T07:35:37Z</time>
      </trkpt>
      <trkpt lat="44.71813" lon="5.48449">
        <ele>1378.19</ele>
        <time>2024-05-20T07:35:50Z</time>
      </trkpt>
      <trkpt lat="44.71811" lon="5.48464">
        <ele>1374.82</ele>
        <time>2024-05-20T07:36:03Z</time>
      </trkpt>
      <trkpt lat="44.71811" lon="5.48481">
        <ele>1372.42</ele>
        <time>2024-05-20T07:36:15Z</time>
      </trkpt>
      <trkpt lat="44.71811" lon="5.48492">
        <ele>1369.05</ele>
        <time>2024-05-20T07:36:30Z</time>
      </trkpt>
      <trkpt lat="44.71805" lon="5.48508">
        <ele>1366.65</ele>
        <time>2024-05-20T07:36:44Z</time>
      </trkpt>
      <trkpt lat="44.71802" lon="5.4852">
        <ele>1365.21</ele>
        <time>2024-05-20T07:36:56Z</time>
      </trkpt>
      <trkpt lat="44.71797" lon="5.48531">
        <ele>1363.77</ele>
        <time>2024-05-20T07:37:11Z</time>
      </trkpt>
      <trkpt lat="44.71795" lon="5.48553">
        <ele>1361.36</ele>
        <time>2024-05-20T07:37:25Z</time>
      </trkpt>
      <trkpt lat="44.71795" lon="5.4856">
        <ele>1360.88</ele>
        <time>2024-05-20T07:37:30Z</time>
      </trkpt>
      <trkpt lat="44.71793" lon="5.48564">
        <ele>1359.92</ele>
        <time>2024-05-20T07:37:33Z</time>
      </trkpt>
      <trkpt lat="44.71786" lon="5.48578">
        <ele>1356.08</ele>
        <time>2024-05-20T07:37:46Z</time>
      </trkpt>
      <trkpt lat="44.7178" lon="5.48581">
        <ele>1353.67</ele>
        <time>2024-05-20T07:38:00Z</time>
      </trkpt>
      <trkpt lat="44.71776" lon="5.48573">
        <ele>1349.83</ele>
        <time>2024-05-20T07:38:53Z</time>
      </trkpt>
      <trkpt lat="44.7177" lon="5.48574">
        <ele>1345.98</ele>
        <time>2024-05-20T07:39:04Z</time>
      </trkpt>
      <trkpt lat="44.71767" lon="5.48562">
        <ele>1342.62</ele>
        <time>2024-05-20T07:39:16Z</time>
      </trkpt>
      <trkpt lat="44.71763" lon="5.48563">
        <ele>1341.18</ele>
        <time>2024-05-20T07:39:24Z</time>
      </trkpt>
      <trkpt lat="44.71757" lon="5.48576">
        <ele>1336.85</ele>
        <time>2024-05-20T07:39:37Z</time>
      </trkpt>
      <trkpt lat="44.7175" lon="5.48568">
        <ele>1333.97</ele>
        <time>2024-05-20T07:39:50Z</time>
      </trkpt>
      <trkpt lat="44.71745" lon="5.48552">
        <ele>1330.6</ele>
        <time>2024-05-20T07:40:02Z</time>
      </trkpt>
      <trkpt lat="44.71744" lon="5.48539">
        <ele>1327.24</ele>
        <time>2024-05-20T07:40:13Z</time>
      </trkpt>
      <trkpt lat="44.7174" lon="5.48526">
        <ele>1323.87</ele>
        <time>2024-05-20T07:40:25Z</time>
      </trkpt>
      <trkpt lat="44.71736" lon="5.48533">
        <ele>1320.51</ele>
        <time>2024-05-20T07:40:38Z</time>
      </trkpt>
      <trkpt lat="44.71728" lon="5.48549">
        <ele>1317.14</ele>
        <time>2024-05-20T07:40:48Z</time>
      </trkpt>
      <trkpt lat="44.71723" lon="5.48541">
        <ele>1313.3</ele>
        <time>2024-05-20T07:40:59Z</time>
      </trkpt>
      <trkpt lat="44.71718" lon="5.48555">
        <ele>1309.93</ele>
        <time>2024-05-20T07:41:12Z</time>
      </trkpt>
      <trkpt lat="44.71713" lon="5.48566">
        <ele>1307.05</ele>
        <time>2024-05-20T07:41:22Z</time>
      </trkpt>
      <trkpt lat="44.7171" lon="5.4857">
        <ele>1306.09</ele>
        <time>2024-05-20T07:41:26Z</time>
      </trkpt>
      <trkpt lat="44.71703" lon="5.4856">
        <ele>1302.24</ele>
        <time>2024-05-20T07:41:38Z</time>
      </trkpt>
      <trkpt lat="44.71701" lon="5.48551">
        <ele>1299.84</ele>
        <time>2024-05-20T07:41:44Z</time>
      </trkpt>
      <trkpt lat="44.71697" lon="5.48533">
        <ele>1296.48</ele>
        <time>2024-05-20T07:41:55Z</time>
      </trkpt>
      <trkpt lat="44.71697" lon="5.48534">
        <ele>1293.59</ele>
        <time>2024-05-20T07:42:07Z</time>
      </trkpt>
      <trkpt lat="44.71695" lon="5.4854">
        <ele>1290.71</ele>
        <time>2024-05-20T07:42:15Z</time>
      </trkpt>
      <trkpt lat="44.7169" lon="5.48552">
        <ele>1287.34</ele>
        <time>2024-05-20T07:42:24Z</time>
      </trkpt>
      <trkpt lat="44.71684" lon="5.48559">
        <ele>1284.46</ele>
        <time>2024-05-20T07:42:34Z</time>
      </trkpt>
      <trkpt lat="44.7168" lon="5.48565">
        <ele>1282.06</ele>
        <time>2024-05-20T07:42:40Z</time>
      </trkpt>
      <trkpt lat="44.71678" lon="5.48567">
        <ele>1281.57</ele>
        <time>2024-05-20T07:42:42Z</time>
      </trkpt>
      <trkpt lat="44.71667" lon="5.48587">
        <ele>1277.73</ele>
        <time>2024-05-20T07:42:55Z</time>
      </trkpt>
      <trkpt lat="44.71661" lon="5.48597">
        <ele>1274.85</ele>
        <time>2024-05-20T07:43:02Z</time>
      </trkpt>
      <trkpt lat="44.71654" lon="5.4861">
        <ele>1271.96</ele>
        <time>2024-05-20T07:43:11Z</time>
      </trkpt>
      <trkpt lat="44.71651" lon="5.48612">
        <ele>1271</ele>
        <time>2024-05-20T07:43:14Z</time>
      </trkpt>
      <trkpt lat="44.71649" lon="5.48605">
        <ele>1270.04</ele>
        <time>2024-05-20T07:43:21Z</time>
      </trkpt>
      <trkpt lat="44.71647" lon="5.48582">
        <ele>1266.67</ele>
        <time>2024-05-20T07:43:35Z</time>
      </trkpt>
      <trkpt lat="44.71646" lon="5.4856">
        <ele>1263.79</ele>
        <time>2024-05-20T07:43:48Z</time>
      </trkpt>
      <trkpt lat="44.71644" lon="5.48557">
        <ele>1262.83</ele>
        <time>2024-05-20T07:43:53Z</time>
      </trkpt>
      <trkpt lat="44.71642" lon="5.4856">
        <ele>1261.87</ele>
        <time>2024-05-20T07:43:57Z</time>
      </trkpt>
      <trkpt lat="44.71637" lon="5.48577">
        <ele>1258.5</ele>
        <time>2024-05-20T07:44:09Z</time>
      </trkpt>
      <trkpt lat="44.71629" lon="5.4859">
        <ele>1255.62</ele>
        <time>2024-05-20T07:44:19Z</time>
      </trkpt>
      <trkpt lat="44.7162" lon="5.48609">
        <ele>1252.74</ele>
        <time>2024-05-20T07:44:34Z</time>
      </trkpt>
      <trkpt lat="44.71614" lon="5.48623">
        <ele>1249.37</ele>
        <time>2024-05-20T07:44:46Z</time>
      </trkpt>
      <trkpt lat="44.71607" lon="5.48636">
        <ele>1246.01</ele>
        <time>2024-05-20T07:44:56Z</time>
      </trkpt>
      <trkpt lat="44.71595" lon="5.4865">
        <ele>1244.56</ele>
        <time>2024-05-20T07:45:12Z</time>
      </trkpt>
      <trkpt lat="44.71592" lon="5.48649">
        <ele>1244.08</ele>
        <time>2024-05-20T07:45:27Z</time>
      </trkpt>
      <trkpt lat="44.71587" lon="5.48642">
        <ele>1243.6</ele>
        <time>2024-05-20T07:45:52Z</time>
      </trkpt>
      <trkpt lat="44.71584" lon="5.48643">
        <ele>1243.6</ele>
        <time>2024-05-20T07:46:13Z</time>
      </trkpt>
      <trkpt lat="44.71579" lon="5.48656">
        <ele>1242.64</ele>
        <time>2024-05-20T07:46:26Z</time>
      </trkpt>
      <trkpt lat="44.71572" lon="5.4867">
        <ele>1239.76</ele>
        <time>2024-05-20T07:46:40Z</time>
      </trkpt>
      <trkpt lat="44.71564" lon="5.48681">
        <ele>1236.39</ele>
        <time>2024-05-20T07:46:51Z</time>
      </trkpt>
      <trkpt lat="44.7156" lon="5.48688">
        <ele>1234.95</ele>
        <time>2024-05-20T07:46:58Z</time>
      </trkpt>
      <trkpt lat="44.71546" lon="5.487">
        <ele>1230.62</ele>
        <time>2024-05-20T07:47:13Z</time>
      </trkpt>
      <trkpt lat="44.71535" lon="5.48719">
        <ele>1227.26</ele>
        <time>2024-05-20T07:47:28Z</time>
      </trkpt>
      <trkpt lat="44.71525" lon="5.48728">
        <ele>1224.86</ele>
        <time>2024-05-20T07:47:42Z</time>
      </trkpt>
      <trkpt lat="44.71511" lon="5.48729">
        <ele>1221.01</ele>
        <time>2024-05-20T07:47:55Z</time>
      </trkpt>
      <trkpt lat="44.715" lon="5.48732">
        <ele>1218.61</ele>
        <time>2024-05-20T07:48:06Z</time>
      </trkpt>
      <trkpt lat="44.71499" lon="5.48732">
        <ele>1218.13</ele>
        <time>2024-05-20T07:48:08Z</time>
      </trkpt>
      <trkpt lat="44.71489" lon="5.48738">
        <ele>1215.24</ele>
        <time>2024-05-20T07:48:17Z</time>
      </trkpt>
      <trkpt lat="44.71483" lon="5.48741">
        <ele>1214.28</ele>
        <time>2024-05-20T07:48:21Z</time>
      </trkpt>
      <trkpt lat="44.71467" lon="5.48753">
        <ele>1210.44</ele>
        <time>2024-05-20T07:48:33Z</time>
      </trkpt>
      <trkpt lat="44.71456" lon="5.4876">
        <ele>1207.55</ele>
        <time>2024-05-20T07:48:43Z</time>
      </trkpt>
      <trkpt lat="44.71445" lon="5.48762">
        <ele>1204.19</ele>
        <time>2024-05-20T07:48:53Z</time>
      </trkpt>
      <trkpt lat="44.71436" lon="5.48766">
        <ele>1201.79</ele>
        <time>2024-05-20T07:49:00Z</time>
      </trkpt>
      <trkpt lat="44.71418" lon="5.48771">
        <ele>1198.9</ele>
        <time>2024-05-20T07:49:14Z</time>
      </trkpt>
      <trkpt lat="44.71415" lon="5.48773">
        <ele>1198.42</ele>
        <time>2024-05-20T07:49:17Z</time>
      </trkpt>
      <trkpt lat="44.71411" lon="5.48776">
        <ele>1198.42</ele>
        <time>2024-05-20T07:49:21Z</time>
      </trkpt>
      <trkpt lat="44.71398" lon="5.4878">
        <ele>1195.06</ele>
        <time>2024-05-20T07:49:33Z</time>
      </trkpt>
      <trkpt lat="44.71382" lon="5.48782">
        <ele>1192.17</ele>
        <time>2024-05-20T07:49:45Z</time>
      </trkpt>
      <trkpt lat="44.7137" lon="5.48782">
        <ele>1189.29</ele>
        <time>2024-05-20T07:49:57Z</time>
      </trkpt>
      <trkpt lat="44.71368" lon="5.48772">
        <ele>1185.44</ele>
        <time>2024-05-20T07:50:09Z</time>
      </trkpt>
      <trkpt lat="44.71359" lon="5.48772">
        <ele>1182.08</ele>
        <time>2024-05-20T07:50:23Z</time>
      </trkpt>
      <trkpt lat="44.71351" lon="5.4877">
        <ele>1180.64</ele>
        <time>2024-05-20T07:50:30Z</time>
      </trkpt>
      <trkpt lat="44.71334" lon="5.48767">
        <ele>1177.27</ele>
        <time>2024-05-20T07:50:43Z</time>
      </trkpt>
      <trkpt lat="44.71322" lon="5.48767">
        <ele>1173.91</ele>
        <time>2024-05-20T07:50:52Z</time>
      </trkpt>
      <trkpt lat="44.71303" lon="5.48769">
        <ele>1172.47</ele>
        <time>2024-05-20T07:51:06Z</time>
      </trkpt>
      <trkpt lat="44.71293" lon="5.48768">
        <ele>1171.5</ele>
        <time>2024-05-20T07:51:18Z</time>
      </trkpt>
      <trkpt lat="44.71284" lon="5.48766">
        <ele>1169.1</ele>
        <time>2024-05-20T07:51:30Z</time>
      </trkpt>
      <trkpt lat="44.71269" lon="5.48768">
        <ele>1166.7</ele>
        <time>2024-05-20T07:51:44Z</time>
      </trkpt>
      <trkpt lat="44.71252" lon="5.48761">
        <ele>1162.85</ele>
        <time>2024-05-20T07:51:57Z</time>
      </trkpt>
      <trkpt lat="44.71237" lon="5.48758">
        <ele>1160.45</ele>
        <time>2024-05-20T07:52:08Z</time>
      </trkpt>
      <trkpt lat="44.71217" lon="5.48751">
        <ele>1158.05</ele>
        <time>2024-05-20T07:52:22Z</time>
      </trkpt>
      <trkpt lat="44.71202" lon="5.48735">
        <ele>1157.56</ele>
        <time>2024-05-20T07:52:37Z</time>
      </trkpt>
      <trkpt lat="44.71189" lon="5.48718">
        <ele>1159.49</ele>
        <time>2024-05-20T07:52:49Z</time>
      </trkpt>
      <trkpt lat="44.71187" lon="5.48714">
        <ele>1159.49</ele>
        <time>2024-05-20T07:52:51Z</time>
      </trkpt>
      <trkpt lat="44.71169" lon="5.48688">
        <ele>1159.97</ele>
        <time>2024-05-20T07:53:09Z</time>
      </trkpt>
      <trkpt lat="44.7116" lon="5.48677">
        <ele>1159.97</ele>
        <time>2024-05-20T07:53:18Z</time>
      </trkpt>
      <trkpt lat="44.71158" lon="5.48677">
        <ele>1159.97</ele>
        <time>2024-05-20T07:53:20Z</time>
      </trkpt>
      <trkpt lat="44.71149" lon="5.48671">
        <ele>1157.08</ele>
        <time>2024-05-20T07:53:30Z</time>
      </trkpt>
      <trkpt lat="44.71145" lon="5.48671">
        <ele>1155.64</ele>
        <time>2024-05-20T07:53:33Z</time>
      </trkpt>
      <trkpt lat="44.71139" lon="5.48683">
        <ele>1152.76</ele>
        <time>2024-05-20T07:53:45Z</time>
      </trkpt>
      <trkpt lat="44.71133" lon="5.48684">
        <ele>1150.35</ele>
        <time>2024-05-20T07:53:55Z</time>
      </trkpt>
      <trkpt lat="44.71131" lon="5.4868">
        <ele>1149.87</ele>
        <time>2024-05-20T07:53:58Z</time>
      </trkpt>
      <trkpt lat="44.71128" lon="5.48676">
        <ele>1148.91</ele>
        <time>2024-05-20T07:54:02Z</time>
      </trkpt>
      <trkpt lat="44.7112" lon="5.4866">
        <ele>1146.51</ele>
        <time>2024-05-20T07:54:15Z</time>
      </trkpt>
      <trkpt lat="44.71118" lon="5.48657">
        <ele>1146.51</ele>
        <time>2024-05-20T07:54:17Z</time>
      </trkpt>
      <trkpt lat="44.71107" lon="5.48645">
        <ele>1143.14</ele>
        <time>2024-05-20T07:54:28Z</time>
      </trkpt>
      <trkpt lat="44.71104" lon="5.48642">
        <ele>1142.18</ele>
        <time>2024-05-20T07:54:31Z</time>
      </trkpt>
      <trkpt lat="44.71093" lon="5.48622">
        <ele>1139.3</ele>
        <time>2024-05-20T07:54:46Z</time>
      </trkpt>
      <trkpt lat="44.71089" lon="5.48612">
        <ele>1137.38</ele>
        <time>2024-05-20T07:54:53Z</time>
      </trkpt>
      <trkpt lat="44.71084" lon="5.48596">
        <ele>1135.45</ele>
        <time>2024-05-20T07:55:05Z</time>
      </trkpt>
      <trkpt lat="44.71078" lon="5.48588">
        <ele>1132.09</ele>
        <time>2024-05-20T07:55:17Z</time>
      </trkpt>
      <trkpt lat="44.71076" lon="5.48577">
        <ele>1129.69</ele>
        <time>2024-05-20T07:55:30Z</time>
      </trkpt>
      <trkpt lat="44.71071" lon="5.48572">
        <ele>1128.73</ele>
        <time>2024-05-20T07:55:41Z</time>
      </trkpt>
      <trkpt lat="44.71067" lon="5.48573">
        <ele>1126.32</ele>
        <time>2024-05-20T08:14:21Z</time>
      </trkpt>
      <trkpt lat="44.71065" lon="5.48581">
        <ele>1124.88</ele>
        <time>2024-05-20T08:14:34Z</time>
      </trkpt>
      <trkpt lat="44.71064" lon="5.48595">
        <ele>1123.92</ele>
        <time>2024-05-20T08:14:49Z</time>
      </trkpt>
      <trkpt lat="44.71062" lon="5.48615">
        <ele>1122.48</ele>
        <time>2024-05-20T08:15:04Z</time>
      </trkpt>
      <trkpt lat="44.71062" lon="5.48635">
        <ele>1120.07</ele>
        <time>2024-05-20T08:15:18Z</time>
      </trkpt>
      <trkpt lat="44.71063" lon="5.48665">
        <ele>1116.71</ele>
        <time>2024-05-20T08:15:36Z</time>
      </trkpt>
      <trkpt lat="44.71064" lon="5.48666">
        <ele>1116.71</ele>
        <time>2024-05-20T08:15:37Z</time>
      </trkpt>
      <trkpt lat="44.71063" lon="5.48693">
        <ele>1115.27</ele>
        <time>2024-05-20T08:15:52Z</time>
      </trkpt>
      <trkpt lat="44.7106" lon="5.4872">
        <ele>1113.82</ele>
        <time>2024-05-20T08:16:08Z</time>
      </trkpt>
      <trkpt lat="44.71057" lon="5.48748">
        <ele>1111.9</ele>
        <time>2024-05-20T08:16:26Z</time>
      </trkpt>
      <trkpt lat="44.71058" lon="5.4877">
        <ele>1110.46</ele>
        <time>2024-05-20T08:16:41Z</time>
      </trkpt>
      <trkpt lat="44.71061" lon="5.48793">
        <ele>1108.54</ele>
        <time>2024-05-20T08:16:56Z</time>
      </trkpt>
      <trkpt lat="44.71059" lon="5.4882">
        <ele>1106.61</ele>
        <time>2024-05-20T08:17:12Z</time>
      </trkpt>
      <trkpt lat="44.71052" lon="5.48838">
        <ele>1104.69</ele>
        <time>2024-05-20T08:17:25Z</time>
      </trkpt>
      <trkpt lat="44.7105" lon="5.4884">
        <ele>1104.69</ele>
        <time>2024-05-20T08:17:27Z</time>
      </trkpt>
      <trkpt lat="44.71033" lon="5.48859">
        <ele>1102.29</ele>
        <time>2024-05-20T08:17:42Z</time>
      </trkpt>
      <trkpt lat="44.7102" lon="5.48874">
        <ele>1100.85</ele>
        <time>2024-05-20T08:17:56Z</time>
      </trkpt>
      <trkpt lat="44.71006" lon="5.48889">
        <ele>1098.92</ele>
        <time>2024-05-20T08:18:11Z</time>
      </trkpt>
      <trkpt lat="44.7099" lon="5.48913">
        <ele>1096.04</ele>
        <time>2024-05-20T08:18:29Z</time>
      </trkpt>
      <trkpt lat="44.70979" lon="5.48934">
        <ele>1093.64</ele>
        <time>2024-05-20T08:18:44Z</time>
      </trkpt>
      <trkpt lat="44.7097" lon="5.48959">
        <ele>1091.23</ele>
        <time>2024-05-20T08:19:01Z</time>
      </trkpt>
      <trkpt lat="44.70964" lon="5.48979">
        <ele>1089.79</ele>
        <time>2024-05-20T08:19:14Z</time>
      </trkpt>
      <trkpt lat="44.70963" lon="5.48999">
        <ele>1087.87</ele>
        <time>2024-05-20T08:19:26Z</time>
      </trkpt>
      <trkpt lat="44.70958" lon="5.49019">
        <ele>1085.47</ele>
        <time>2024-05-20T08:19:39Z</time>
      </trkpt>
      <trkpt lat="44.70947" lon="5.49038">
        <ele>1083.54</ele>
        <time>2024-05-20T08:19:53Z</time>
      </trkpt>
      <trkpt lat="44.70943" lon="5.49046">
        <ele>1083.06</ele>
        <time>2024-05-20T08:20:00Z</time>
      </trkpt>
      <trkpt lat="44.70929" lon="5.49062">
        <ele>1081.62</ele>
        <time>2024-05-20T08:20:14Z</time>
      </trkpt>
      <trkpt lat="44.70928" lon="5.49063">
        <ele>1081.62</ele>
        <time>2024-05-20T08:20:15Z</time>
      </trkpt>
      <trkpt lat="44.70922" lon="5.49068">
        <ele>1080.66</ele>
        <time>2024-05-20T08:20:21Z</time>
      </trkpt>
      <trkpt lat="44.70907" lon="5.49067">
        <ele>1079.7</ele>
        <time>2024-05-20T08:20:33Z</time>
      </trkpt>
      <trkpt lat="44.70883" lon="5.49059">
        <ele>1077.29</ele>
        <time>2024-05-20T08:20:53Z</time>
      </trkpt>
      <trkpt lat="44.7087" lon="5.49055">
        <ele>1076.33</ele>
        <time>2024-05-20T08:21:05Z</time>
      </trkpt>
      <trkpt lat="44.70855" lon="5.49048">
        <ele>1074.89</ele>
        <time>2024-05-20T08:21:19Z</time>
      </trkpt>
      <trkpt lat="44.70836" lon="5.49043">
        <ele>1072.97</ele>
        <time>2024-05-20T08:21:34Z</time>
      </trkpt>
      <trkpt lat="44.70818" lon="5.49041">
        <ele>1071.53</ele>
        <time>2024-05-20T08:21:50Z</time>
      </trkpt>
      <trkpt lat="44.70816" lon="5.4904">
        <ele>1071.53</ele>
        <time>2024-05-20T08:21:52Z</time>
      </trkpt>
      <trkpt lat="44.70801" lon="5.4904">
        <ele>1070.08</ele>
        <time>2024-05-20T08:22:05Z</time>
      </trkpt>
      <trkpt lat="44.70782" lon="5.49041">
        <ele>1068.64</ele>
        <time>2024-05-20T08:22:21Z</time>
      </trkpt>
      <trkpt lat="44.70768" lon="5.49043">
        <ele>1067.68</ele>
        <time>2024-05-20T08:22:32Z</time>
      </trkpt>
      <trkpt lat="44.70752" lon="5.49045">
        <ele>1066.72</ele>
        <time>2024-05-20T08:22:45Z</time>
      </trkpt>
      <trkpt lat="44.70732" lon="5.49047">
        <ele>1064.8</ele>
        <time>2024-05-20T08:23:02Z</time>
      </trkpt>
      <trkpt lat="44.70718" lon="5.49052">
        <ele>1063.84</ele>
        <time>2024-05-20T08:23:15Z</time>
      </trkpt>
      <trkpt lat="44.70702" lon="5.49059">
        <ele>1061.91</ele>
        <time>2024-05-20T08:23:29Z</time>
      </trkpt>
      <trkpt lat="44.7068" lon="5.49061">
        <ele>1059.99</ele>
        <time>2024-05-20T08:23:46Z</time>
      </trkpt>
      <trkpt lat="44.70657" lon="5.49062">
        <ele>1058.07</ele>
        <time>2024-05-20T08:24:03Z</time>
      </trkpt>
      <trkpt lat="44.7065" lon="5.49062">
        <ele>1057.59</ele>
        <time>2024-05-20T08:24:10Z</time>
      </trkpt>
      <trkpt lat="44.7064" lon="5.49063">
        <ele>1056.15</ele>
        <time>2024-05-20T08:24:18Z</time>
      </trkpt>
      <trkpt lat="44.7062" lon="5.49063">
        <ele>1053.74</ele>
        <time>2024-05-20T08:24:35Z</time>
      </trkpt>
      <trkpt lat="44.70603" lon="5.49059">
        <ele>1052.3</ele>
        <time>2024-05-20T08:24:50Z</time>
      </trkpt>
      <trkpt lat="44.7058" lon="5.49057">
        <ele>1049.42</ele>
        <time>2024-05-20T08:25:09Z</time>
      </trkpt>
      <trkpt lat="44.70567" lon="5.49062">
        <ele>1048.45</ele>
        <time>2024-05-20T08:25:22Z</time>
      </trkpt>
      <trkpt lat="44.70551" lon="5.4907">
        <ele>1046.53</ele>
        <time>2024-05-20T08:25:38Z</time>
      </trkpt>
      <trkpt lat="44.70539" lon="5.49082">
        <ele>1044.61</ele>
        <time>2024-05-20T08:25:52Z</time>
      </trkpt>
      <trkpt lat="44.7053" lon="5.49098">
        <ele>1042.69</ele>
        <time>2024-05-20T08:26:09Z</time>
      </trkpt>
      <trkpt lat="44.7052" lon="5.49113">
        <ele>1041.73</ele>
        <time>2024-05-20T08:26:27Z</time>
      </trkpt>
      <trkpt lat="44.70508" lon="5.49135">
        <ele>1039.8</ele>
        <time>2024-05-20T08:26:46Z</time>
      </trkpt>
      <trkpt lat="44.70497" lon="5.49154">
        <ele>1037.88</ele>
        <time>2024-05-20T08:27:01Z</time>
      </trkpt>
      <trkpt lat="44.70485" lon="5.49176">
        <ele>1035.48</ele>
        <time>2024-05-20T08:27:19Z</time>
      </trkpt>
      <trkpt lat="44.70472" lon="5.49192">
        <ele>1033.07</ele>
        <time>2024-05-20T08:29:38Z</time>
      </trkpt>
      <trkpt lat="44.70462" lon="5.49208">
        <ele>1031.63</ele>
        <time>2024-05-20T08:29:53Z</time>
      </trkpt>
      <trkpt lat="44.70456" lon="5.49224">
        <ele>1033.07</ele>
        <time>2024-05-20T08:30:09Z</time>
      </trkpt>
      <trkpt lat="44.70448" lon="5.49242">
        <ele>1034.04</ele>
        <time>2024-05-20T08:30:25Z</time>
      </trkpt>
      <trkpt lat="44.70443" lon="5.49254">
        <ele>1035</ele>
        <time>2024-05-20T08:30:39Z</time>
      </trkpt>
      <trkpt lat="44.70439" lon="5.4927">
        <ele>1036.44</ele>
        <time>2024-05-20T08:30:53Z</time>
      </trkpt>
      <trkpt lat="44.70436" lon="5.49288">
        <ele>1038.36</ele>
        <time>2024-05-20T08:31:09Z</time>
      </trkpt>
      <trkpt lat="44.70434" lon="5.49305">
        <ele>1038.84</ele>
        <time>2024-05-20T08:31:22Z</time>
      </trkpt>
      <trkpt lat="44.70433" lon="5.49323">
        <ele>1039.32</ele>
        <time>2024-05-20T08:31:35Z</time>
      </trkpt>
      <trkpt lat="44.70434" lon="5.49343">
        <ele>1039.8</ele>
        <time>2024-05-20T08:31:51Z</time>
      </trkpt>
      <trkpt lat="44.7043" lon="5.49355">
        <ele>1039.8</ele>
        <time>2024-05-20T08:32:05Z</time>
      </trkpt>
      <trkpt lat="44.70427" lon="5.49374">
        <ele>1039.8</ele>
        <time>2024-05-20T08:32:20Z</time>
      </trkpt>
      <trkpt lat="44.70426" lon="5.49376">
        <ele>1038.36</ele>
        <time>2024-05-20T08:32:22Z</time>
      </trkpt>
      <trkpt lat="44.70423" lon="5.49395">
        <ele>1035.48</ele>
        <time>2024-05-20T08:32:38Z</time>
      </trkpt>
      <trkpt lat="44.70425" lon="5.49403">
        <ele>1035</ele>
        <time>2024-05-20T08:32:44Z</time>
      </trkpt>
      <trkpt lat="44.7043" lon="5.49418">
        <ele>1036.44</ele>
        <time>2024-05-20T08:32:58Z</time>
      </trkpt>
      <trkpt lat="44.7043" lon="5.49419">
        <ele>1035.96</ele>
        <time>2024-05-20T08:32:59Z</time>
      </trkpt>
      <trkpt lat="44.70442" lon="5.49431">
        <ele>1036.92</ele>
        <time>2024-05-20T08:33:15Z</time>
      </trkpt>
      <trkpt lat="44.70448" lon="5.49441">
        <ele>1035.48</ele>
        <time>2024-05-20T08:33:24Z</time>
      </trkpt>
      <trkpt lat="44.70459" lon="5.49456">
        <ele>1035.48</ele>
        <time>2024-05-20T08:33:38Z</time>
      </trkpt>
      <trkpt lat="44.70464" lon="5.4946">
        <ele>1035</ele>
        <time>2024-05-20T08:33:45Z</time>
      </trkpt>
      <trkpt lat="44.70475" lon="5.49478">
        <ele>1033.55</ele>
        <time>2024-05-20T08:34:01Z</time>
      </trkpt>
      <trkpt lat="44.70483" lon="5.49494">
        <ele>1032.59</ele>
        <time>2024-05-20T08:34:13Z</time>
      </trkpt>
      <trkpt lat="44.7049" lon="5.4951">
        <ele>1030.19</ele>
        <time>2024-05-20T08:34:28Z</time>
      </trkpt>
      <trkpt lat="44.70501" lon="5.49525">
        <ele>1028.75</ele>
        <time>2024-05-20T08:34:45Z</time>
      </trkpt>
      <trkpt lat="44.70505" lon="5.4953">
        <ele>1028.75</ele>
        <time>2024-05-20T08:34:49Z</time>
      </trkpt>
      <trkpt lat="44.70513" lon="5.49548">
        <ele>1027.79</ele>
        <time>2024-05-20T08:35:03Z</time>
      </trkpt>
      <trkpt lat="44.70523" lon="5.49565">
        <ele>1026.83</ele>
        <time>2024-05-20T08:35:22Z</time>
      </trkpt>
      <trkpt lat="44.70537" lon="5.49584">
        <ele>1023.94</ele>
        <time>2024-05-20T08:35:40Z</time>
      </trkpt>
      <trkpt lat="44.70549" lon="5.49595">
        <ele>1022.5</ele>
        <time>2024-05-20T08:35:53Z</time>
      </trkpt>
      <trkpt lat="44.70555" lon="5.49597">
        <ele>1021.54</ele>
        <time>2024-05-20T08:36:08Z</time>
      </trkpt>
      <trkpt lat="44.70557" lon="5.496">
        <ele>1021.54</ele>
        <time>2024-05-20T08:36:26Z</time>
      </trkpt>
      <trkpt lat="44.70562" lon="5.49608">
        <ele>1020.1</ele>
        <time>2024-05-20T08:39:53Z</time>
      </trkpt>
      <trkpt lat="44.70568" lon="5.49619">
        <ele>1018.65</ele>
        <time>2024-05-20T08:40:02Z</time>
      </trkpt>
      <trkpt lat="44.70578" lon="5.4963">
        <ele>1018.17</ele>
        <time>2024-05-20T08:40:16Z</time>
      </trkpt>
      <trkpt lat="44.70587" lon="5.49641">
        <ele>1017.69</ele>
        <time>2024-05-20T08:40:31Z</time>
      </trkpt>
      <trkpt lat="44.70591" lon="5.4965">
        <ele>1017.21</ele>
        <time>2024-05-20T08:40:44Z</time>
      </trkpt>
      <trkpt lat="44.70596" lon="5.49659">
        <ele>1016.25</ele>
        <time>2024-05-20T08:40:56Z</time>
      </trkpt>
      <trkpt lat="44.70605" lon="5.49672">
        <ele>1014.33</ele>
        <time>2024-05-20T08:41:09Z</time>
      </trkpt>
      <trkpt lat="44.70607" lon="5.49673">
        <ele>1014.33</ele>
        <time>2024-05-20T08:41:11Z</time>
      </trkpt>
      <trkpt lat="44.70621" lon="5.4969">
        <ele>1012.41</ele>
        <time>2024-05-20T08:41:27Z</time>
      </trkpt>
      <trkpt lat="44.70633" lon="5.49705">
        <ele>1010</ele>
        <time>2024-05-20T08:41:41Z</time>
      </trkpt>
      <trkpt lat="44.70643" lon="5.49716">
        <ele>1009.04</ele>
        <time>2024-05-20T08:41:55Z</time>
      </trkpt>
      <trkpt lat="44.70645" lon="5.49724">
        <ele>1008.56</ele>
        <time>2024-05-20T08:42:12Z</time>
      </trkpt>
      <trkpt lat="44.70649" lon="5.49732">
        <ele>1007.6</ele>
        <time>2024-05-20T08:42:23Z</time>
      </trkpt>
      <trkpt lat="44.70635" lon="5.49726">
        <ele>1005.2</ele>
        <time>2024-05-20T08:45:32Z</time>
      </trkpt>
      <trkpt lat="44.70622" lon="5.49723">
        <ele>1002.79</ele>
        <time>2024-05-20T08:45:47Z</time>
      </trkpt>
      <trkpt lat="44.70616" lon="5.49721">
        <ele>1001.35</ele>
        <time>2024-05-20T08:45:54Z</time>
      </trkpt>
      <trkpt lat="44.70612" lon="5.4972">
        <ele>999.91</ele>
        <time>2024-05-20T08:45:59Z</time>
      </trkpt>
      <trkpt lat="44.70595" lon="5.49712">
        <ele>996.06</ele>
        <time>2024-05-20T08:46:14Z</time>
      </trkpt>
      <trkpt lat="44.70584" lon="5.49711">
        <ele>993.18</ele>
        <time>2024-05-20T08:46:26Z</time>
      </trkpt>
      <trkpt lat="44.70584" lon="5.49721">
        <ele>990.3</ele>
        <time>2024-05-20T08:46:39Z</time>
      </trkpt>
      <trkpt lat="44.70587" lon="5.4973">
        <ele>986.93</ele>
        <time>2024-05-20T08:46:50Z</time>
      </trkpt>
      <trkpt lat="44.70588" lon="5.49742">
        <ele>984.05</ele>
        <time>2024-05-20T08:47:00Z</time>
      </trkpt>
      <trkpt lat="44.70587" lon="5.49744">
        <ele>983.57</ele>
        <time>2024-05-20T08:47:12Z</time>
      </trkpt>
      <trkpt lat="44.70586" lon="5.49746">
        <ele>983.57</ele>
        <time>2024-05-20T08:47:29Z</time>
      </trkpt>
      <trkpt lat="44.70584" lon="5.49749">
        <ele>983.09</ele>
        <time>2024-05-20T08:47:50Z</time>
      </trkpt>
      <trkpt lat="44.7059" lon="5.49756">
        <ele>983.09</ele>
        <time>2024-05-20T08:48:09Z</time>
      </trkpt>
      <trkpt lat="44.70601" lon="5.49773">
        <ele>982.6</ele>
        <time>2024-05-20T08:48:27Z</time>
      </trkpt>
      <trkpt lat="44.70608" lon="5.49785">
        <ele>984.05</ele>
        <time>2024-05-20T08:48:39Z</time>
      </trkpt>
      <trkpt lat="44.70609" lon="5.49799">
        <ele>985.97</ele>
        <time>2024-05-20T08:48:52Z</time>
      </trkpt>
      <trkpt lat="44.70609" lon="5.49815">
        <ele>987.41</ele>
        <time>2024-05-20T08:49:07Z</time>
      </trkpt>
      <trkpt lat="44.70608" lon="5.49833">
        <ele>989.33</ele>
        <time>2024-05-20T08:49:22Z</time>
      </trkpt>
      <trkpt lat="44.70611" lon="5.4985">
        <ele>991.26</ele>
        <time>2024-05-20T08:49:36Z</time>
      </trkpt>
      <trkpt lat="44.70615" lon="5.49869">
        <ele>992.7</ele>
        <time>2024-05-20T08:49:50Z</time>
      </trkpt>
      <trkpt lat="44.70617" lon="5.49884">
        <ele>994.14</ele>
        <time>2024-05-20T08:50:03Z</time>
      </trkpt>
      <trkpt lat="44.70617" lon="5.49902">
        <ele>995.58</ele>
        <time>2024-05-20T08:50:17Z</time>
      </trkpt>
      <trkpt lat="44.70615" lon="5.49915">
        <ele>997.02</ele>
        <time>2024-05-20T08:50:30Z</time>
      </trkpt>
      <trkpt lat="44.70614" lon="5.49931">
        <ele>998.47</ele>
        <time>2024-05-20T08:50:43Z</time>
      </trkpt>
      <trkpt lat="44.70615" lon="5.49947">
        <ele>999.43</ele>
        <time>2024-05-20T08:50:58Z</time>
      </trkpt>
      <trkpt lat="44.70615" lon="5.49965">
        <ele>1000.87</ele>
        <time>2024-05-20T08:51:12Z</time>
      </trkpt>
      <trkpt lat="44.70616" lon="5.4998">
        <ele>1001.83</ele>
        <time>2024-05-20T08:51:22Z</time>
      </trkpt>
      <trkpt lat="44.70608" lon="5.50001">
        <ele>1003.27</ele>
        <time>2024-05-20T08:51:37Z</time>
      </trkpt>
      <trkpt lat="44.70603" lon="5.50012">
        <ele>1005.2</ele>
        <time>2024-05-20T08:51:50Z</time>
      </trkpt>
      <trkpt lat="44.70594" lon="5.50027">
        <ele>1006.16</ele>
        <time>2024-05-20T08:52:03Z</time>
      </trkpt>
      <trkpt lat="44.70587" lon="5.5004">
        <ele>1008.08</ele>
        <time>2024-05-20T08:52:18Z</time>
      </trkpt>
      <trkpt lat="44.70581" lon="5.50054">
        <ele>1009.52</ele>
        <time>2024-05-20T08:52:33Z</time>
      </trkpt>
      <trkpt lat="44.70576" lon="5.50071">
        <ele>1010.96</ele>
        <time>2024-05-20T08:52:47Z</time>
      </trkpt>
      <trkpt lat="44.70568" lon="5.50087">
        <ele>1012.89</ele>
        <time>2024-05-20T08:53:03Z</time>
      </trkpt>
      <trkpt lat="44.70563" lon="5.50101">
        <ele>1014.33</ele>
        <time>2024-05-20T08:53:16Z</time>
      </trkpt>
      <trkpt lat="44.70555" lon="5.50116">
        <ele>1014.81</ele>
        <time>2024-05-20T08:53:29Z</time>
      </trkpt>
      <trkpt lat="44.70547" lon="5.50134">
        <ele>1016.25</ele>
        <time>2024-05-20T08:53:43Z</time>
      </trkpt>
      <trkpt lat="44.70541" lon="5.50154">
        <ele>1018.17</ele>
        <time>2024-05-20T08:54:00Z</time>
      </trkpt>
      <trkpt lat="44.70538" lon="5.50173">
        <ele>1019.13</ele>
        <time>2024-05-20T08:54:15Z</time>
      </trkpt>
      <trkpt lat="44.7053" lon="5.50194">
        <ele>1020.58</ele>
        <time>2024-05-20T08:54:30Z</time>
      </trkpt>
      <trkpt lat="44.70518" lon="5.50206">
        <ele>1021.06</ele>
        <time>2024-05-20T08:54:45Z</time>
      </trkpt>
      <trkpt lat="44.70515" lon="5.50207">
        <ele>1021.54</ele>
        <time>2024-05-20T08:54:48Z</time>
      </trkpt>
      <trkpt lat="44.70504" lon="5.50216">
        <ele>1022.98</ele>
        <time>2024-05-20T08:55:03Z</time>
      </trkpt>
      <trkpt lat="44.70496" lon="5.50232">
        <ele>1024.9</ele>
        <time>2024-05-20T08:55:18Z</time>
      </trkpt>
      <trkpt lat="44.70486" lon="5.50246">
        <ele>1026.83</ele>
        <time>2024-05-20T08:55:33Z</time>
      </trkpt>
      <trkpt lat="44.70478" lon="5.50261">
        <ele>1028.27</ele>
        <time>2024-05-20T08:55:46Z</time>
      </trkpt>
      <trkpt lat="44.70468" lon="5.50273">
        <ele>1029.71</ele>
        <time>2024-05-20T08:56:01Z</time>
      </trkpt>
      <trkpt lat="44.7046" lon="5.50286">
        <ele>1031.63</ele>
        <time>2024-05-20T08:56:16Z</time>
      </trkpt>
      <trkpt lat="44.70452" lon="5.50299">
        <ele>1032.59</ele>
        <time>2024-05-20T08:56:30Z</time>
      </trkpt>
      <trkpt lat="44.70443" lon="5.5031">
        <ele>1034.52</ele>
        <time>2024-05-20T08:56:44Z</time>
      </trkpt>
      <trkpt lat="44.70435" lon="5.5032">
        <ele>1035.96</ele>
        <time>2024-05-20T08:56:57Z</time>
      </trkpt>
      <trkpt lat="44.70425" lon="5.50332">
        <ele>1037.88</ele>
        <time>2024-05-20T08:57:10Z</time>
      </trkpt>
      <trkpt lat="44.70415" lon="5.50341">
        <ele>1038.84</ele>
        <time>2024-05-20T08:57:23Z</time>
      </trkpt>
      <trkpt lat="44.70405" lon="5.50352">
        <ele>1040.76</ele>
        <time>2024-05-20T08:57:37Z</time>
      </trkpt>
      <trkpt lat="44.70394" lon="5.50363">
        <ele>1041.73</ele>
        <time>2024-05-20T08:57:49Z</time>
      </trkpt>
      <trkpt lat="44.70387" lon="5.50371">
        <ele>1043.17</ele>
        <time>2024-05-20T08:58:00Z</time>
      </trkpt>
      <trkpt lat="44.70378" lon="5.50381">
        <ele>1044.61</ele>
        <time>2024-05-20T08:58:12Z</time>
      </trkpt>
      <trkpt lat="44.70371" lon="5.50391">
        <ele>1045.09</ele>
        <time>2024-05-20T08:58:23Z</time>
      </trkpt>
      <trkpt lat="44.70362" lon="5.50403">
        <ele>1047.01</ele>
        <time>2024-05-20T08:58:36Z</time>
      </trkpt>
      <trkpt lat="44.70351" lon="5.50411">
        <ele>1048.45</ele>
        <time>2024-05-20T08:58:50Z</time>
      </trkpt>
      <trkpt lat="44.70345" lon="5.50422">
        <ele>1049.9</ele>
        <time>2024-05-20T08:59:04Z</time>
      </trkpt>
      <trkpt lat="44.70335" lon="5.50433">
        <ele>1051.82</ele>
        <time>2024-05-20T08:59:17Z</time>
      </trkpt>
      <trkpt lat="44.70327" lon="5.50442">
        <ele>1053.26</ele>
        <time>2024-05-20T08:59:28Z</time>
      </trkpt>
      <trkpt lat="44.70319" lon="5.50454">
        <ele>1054.22</ele>
        <time>2024-05-20T08:59:39Z</time>
      </trkpt>
      <trkpt lat="44.70318" lon="5.50455">
        <ele>1054.22</ele>
        <time>2024-05-20T08:59:40Z</time>
      </trkpt>
      <trkpt lat="44.70308" lon="5.50467">
        <ele>1056.15</ele>
        <time>2024-05-20T08:59:53Z</time>
      </trkpt>
      <trkpt lat="44.70307" lon="5.50467">
        <ele>1056.15</ele>
        <time>2024-05-20T08:59:54Z</time>
      </trkpt>
      <trkpt lat="44.70302" lon="5.50474">
        <ele>1056.63</ele>
        <time>2024-05-20T09:00:00Z</time>
      </trkpt>
      <trkpt lat="44.703" lon="5.50478">
        <ele>1057.11</ele>
        <time>2024-05-20T09:00:03Z</time>
      </trkpt>
      <trkpt lat="44.70289" lon="5.50485">
        <ele>1058.07</ele>
        <time>2024-05-20T09:00:17Z</time>
      </trkpt>
      <trkpt lat="44.70275" lon="5.50482">
        <ele>1059.99</ele>
        <time>2024-05-20T09:00:31Z</time>
      </trkpt>
      <trkpt lat="44.70259" lon="5.50478">
        <ele>1062.39</ele>
        <time>2024-05-20T09:00:50Z</time>
      </trkpt>
      <trkpt lat="44.70247" lon="5.50479">
        <ele>1063.84</ele>
        <time>2024-05-20T09:01:04Z</time>
      </trkpt>
      <trkpt lat="44.70244" lon="5.5048">
        <ele>1064.8</ele>
        <time>2024-05-20T09:01:08Z</time>
      </trkpt>
      <trkpt lat="44.70232" lon="5.50481">
        <ele>1065.76</ele>
        <time>2024-05-20T09:01:23Z</time>
      </trkpt>
      <trkpt lat="44.70216" lon="5.50485">
        <ele>1067.2</ele>
        <time>2024-05-20T09:01:39Z</time>
      </trkpt>
      <trkpt lat="44.70201" lon="5.50492">
        <ele>1068.64</ele>
        <time>2024-05-20T09:01:54Z</time>
      </trkpt>
      <trkpt lat="44.70187" lon="5.50495">
        <ele>1070.57</ele>
        <time>2024-05-20T09:02:10Z</time>
      </trkpt>
      <trkpt lat="44.70175" lon="5.505">
        <ele>1072.01</ele>
        <time>2024-05-20T09:02:24Z</time>
      </trkpt>
      <trkpt lat="44.7016" lon="5.50505">
        <ele>1073.93</ele>
        <time>2024-05-20T09:02:39Z</time>
      </trkpt>
      <trkpt lat="44.70146" lon="5.50509">
        <ele>1075.85</ele>
        <time>2024-05-20T09:02:53Z</time>
      </trkpt>
      <trkpt lat="44.70134" lon="5.50514">
        <ele>1077.29</ele>
        <time>2024-05-20T09:03:08Z</time>
      </trkpt>
      <trkpt lat="44.70132" lon="5.50514">
        <ele>1077.29</ele>
        <time>2024-05-20T09:03:10Z</time>
      </trkpt>
      <trkpt lat="44.70117" lon="5.5052">
        <ele>1079.22</ele>
        <time>2024-05-20T09:03:25Z</time>
      </trkpt>
      <trkpt lat="44.70101" lon="5.50523">
        <ele>1079.7</ele>
        <time>2024-05-20T09:03:40Z</time>
      </trkpt>
      <trkpt lat="44.70084" lon="5.50525">
        <ele>1079.7</ele>
        <time>2024-05-20T09:03:58Z</time>
      </trkpt>
      <trkpt lat="44.70069" lon="5.50534">
        <ele>1079.7</ele>
        <time>2024-05-20T09:04:14Z</time>
      </trkpt>
      <trkpt lat="44.70066" lon="5.50538">
        <ele>1079.7</ele>
        <time>2024-05-20T09:04:30Z</time>
      </trkpt>
      <trkpt lat="44.70063" lon="5.50545">
        <ele>1078.74</ele>
        <time>2024-05-20T09:04:48Z</time>
      </trkpt>
      <trkpt lat="44.70061" lon="5.50556">
        <ele>1077.29</ele>
        <time>2024-05-20T09:04:59Z</time>
      </trkpt>
      <trkpt lat="44.70062" lon="5.50574">
        <ele>1077.29</ele>
        <time>2024-05-20T09:05:12Z</time>
      </trkpt>
      <trkpt lat="44.70063" lon="5.50585">
        <ele>1077.29</ele>
        <time>2024-05-20T09:05:19Z</time>
      </trkpt>
      <trkpt lat="44.70066" lon="5.50594">
        <ele>1077.78</ele>
        <time>2024-05-20T09:05:25Z</time>
      </trkpt>
      <trkpt lat="44.70071" lon="5.50615">
        <ele>1077.78</ele>
        <time>2024-05-20T09:05:40Z</time>
      </trkpt>
      <trkpt lat="44.70079" lon="5.50644">
        <ele>1077.78</ele>
        <time>2024-05-20T09:05:57Z</time>
      </trkpt>
      <trkpt lat="44.70082" lon="5.50661">
        <ele>1077.78</ele>
        <time>2024-05-20T09:06:13Z</time>
      </trkpt>
      <trkpt lat="44.70088" lon="5.50682">
        <ele>1077.78</ele>
        <time>2024-05-20T09:06:27Z</time>
      </trkpt>
      <trkpt lat="44.70089" lon="5.50685">
        <ele>1078.74</ele>
        <time>2024-05-20T09:06:29Z</time>
      </trkpt>
      <trkpt lat="44.70094" lon="5.50705">
        <ele>1080.18</ele>
        <time>2024-05-20T09:06:44Z</time>
      </trkpt>
      <trkpt lat="44.70097" lon="5.50726">
        <ele>1080.66</ele>
        <time>2024-05-20T09:06:58Z</time>
      </trkpt>
      <trkpt lat="44.70094" lon="5.50742">
        <ele>1081.14</ele>
        <time>2024-05-20T09:07:09Z</time>
      </trkpt>
      <trkpt lat="44.70087" lon="5.50765">
        <ele>1081.14</ele>
        <time>2024-05-20T09:07:26Z</time>
      </trkpt>
      <trkpt lat="44.7008" lon="5.50793">
        <ele>1081.14</ele>
        <time>2024-05-20T09:07:42Z</time>
      </trkpt>
      <trkpt lat="44.70074" lon="5.5081">
        <ele>1081.62</ele>
        <time>2024-05-20T09:07:56Z</time>
      </trkpt>
      <trkpt lat="44.70069" lon="5.5082">
        <ele>1082.1</ele>
        <time>2024-05-20T09:08:03Z</time>
      </trkpt>
      <trkpt lat="44.70061" lon="5.50844">
        <ele>1082.1</ele>
        <time>2024-05-20T09:08:19Z</time>
      </trkpt>
      <trkpt lat="44.70053" lon="5.50874">
        <ele>1082.1</ele>
        <time>2024-05-20T09:08:38Z</time>
      </trkpt>
      <trkpt lat="44.70046" lon="5.509">
        <ele>1082.1</ele>
        <time>2024-05-20T09:08:55Z</time>
      </trkpt>
      <trkpt lat="44.7004" lon="5.5093">
        <ele>1082.58</ele>
        <time>2024-05-20T09:09:13Z</time>
      </trkpt>
      <trkpt lat="44.70034" lon="5.50955">
        <ele>1082.58</ele>
        <time>2024-05-20T09:09:29Z</time>
      </trkpt>
      <trkpt lat="44.70028" lon="5.50971">
        <ele>1082.58</ele>
        <time>2024-05-20T09:09:41Z</time>
      </trkpt>
      <trkpt lat="44.70021" lon="5.50998">
        <ele>1082.58</ele>
        <time>2024-05-20T09:09:58Z</time>
      </trkpt>
      <trkpt lat="44.70014" lon="5.51019">
        <ele>1082.58</ele>
        <time>2024-05-20T09:10:13Z</time>
      </trkpt>
      <trkpt lat="44.70004" lon="5.5104">
        <ele>1083.06</ele>
        <time>2024-05-20T09:10:27Z</time>
      </trkpt>
      <trkpt lat="44.69995" lon="5.51056">
        <ele>1083.54</ele>
        <time>2024-05-20T09:10:40Z</time>
      </trkpt>
      <trkpt lat="44.69978" lon="5.51076">
        <ele>1084.5</ele>
        <time>2024-05-20T09:10:57Z</time>
      </trkpt>
      <trkpt lat="44.69965" lon="5.511">
        <ele>1085.95</ele>
        <time>2024-05-20T09:11:13Z</time>
      </trkpt>
      <trkpt lat="44.69954" lon="5.51119">
        <ele>1086.91</ele>
        <time>2024-05-20T09:11:28Z</time>
      </trkpt>
      <trkpt lat="44.69942" lon="5.51141">
        <ele>1087.87</ele>
        <time>2024-05-20T09:11:46Z</time>
      </trkpt>
      <trkpt lat="44.69929" lon="5.5116">
        <ele>1087.87</ele>
        <time>2024-05-20T09:12:02Z</time>
      </trkpt>
      <trkpt lat="44.69912" lon="5.51173">
        <ele>1088.35</ele>
        <time>2024-05-20T09:12:19Z</time>
      </trkpt>
      <trkpt lat="44.699" lon="5.51182">
        <ele>1088.35</ele>
        <time>2024-05-20T09:12:36Z</time>
      </trkpt>
      <trkpt lat="44.699" lon="5.51187">
        <ele>1090.75</ele>
        <time>2024-05-20T09:23:48Z</time>
      </trkpt>
      <trkpt lat="44.69907" lon="5.51197">
        <ele>1090.75</ele>
        <time>2024-05-20T09:24:03Z</time>
      </trkpt>
      <trkpt lat="44.6991" lon="5.51199">
        <ele>1089.79</ele>
        <time>2024-05-20T09:24:07Z</time>
      </trkpt>
      <trkpt lat="44.69928" lon="5.51211">
        <ele>1087.87</ele>
        <time>2024-05-20T09:24:27Z</time>
      </trkpt>
      <trkpt lat="44.69946" lon="5.5122">
        <ele>1084.99</ele>
        <time>2024-05-20T09:24:44Z</time>
      </trkpt>
      <trkpt lat="44.69965" lon="5.51227">
        <ele>1082.1</ele>
        <time>2024-05-20T09:25:00Z</time>
      </trkpt>
      <trkpt lat="44.69983" lon="5.51238">
        <ele>1080.18</ele>
        <time>2024-05-20T09:25:17Z</time>
      </trkpt>
      <trkpt lat="44.69985" lon="5.51238">
        <ele>1079.7</ele>
        <time>2024-05-20T09:25:19Z</time>
      </trkpt>
      <trkpt lat="44.70004" lon="5.51248">
        <ele>1077.78</ele>
        <time>2024-05-20T09:25:35Z</time>
      </trkpt>
      <trkpt lat="44.70025" lon="5.51262">
        <ele>1075.85</ele>
        <time>2024-05-20T09:25:54Z</time>
      </trkpt>
      <trkpt lat="44.70039" lon="5.51276">
        <ele>1073.93</ele>
        <time>2024-05-20T09:26:09Z</time>
      </trkpt>
      <trkpt lat="44.70054" lon="5.51289">
        <ele>1071.53</ele>
        <time>2024-05-20T09:26:26Z</time>
      </trkpt>
      <trkpt lat="44.70069" lon="5.51302">
        <ele>1070.08</ele>
        <time>2024-05-20T09:26:41Z</time>
      </trkpt>
      <trkpt lat="44.70085" lon="5.51318">
        <ele>1067.2</ele>
        <time>2024-05-20T09:26:57Z</time>
      </trkpt>
      <trkpt lat="44.701" lon="5.51338">
        <ele>1064.8</ele>
        <time>2024-05-20T09:27:13Z</time>
      </trkpt>
      <trkpt lat="44.70119" lon="5.51364">
        <ele>1061.91</ele>
        <time>2024-05-20T09:27:34Z</time>
      </trkpt>
      <trkpt lat="44.70135" lon="5.51383">
        <ele>1059.99</ele>
        <time>2024-05-20T09:27:51Z</time>
      </trkpt>
      <trkpt lat="44.70152" lon="5.51394">
        <ele>1058.07</ele>
        <time>2024-05-20T09:28:08Z</time>
      </trkpt>
      <trkpt lat="44.70168" lon="5.51407">
        <ele>1056.15</ele>
        <time>2024-05-20T09:28:24Z</time>
      </trkpt>
      <trkpt lat="44.70171" lon="5.51412">
        <ele>1055.18</ele>
        <time>2024-05-20T09:28:28Z</time>
      </trkpt>
      <trkpt lat="44.70184" lon="5.51435">
        <ele>1053.74</ele>
        <time>2024-05-20T09:28:44Z</time>
      </trkpt>
      <trkpt lat="44.70195" lon="5.51464">
        <ele>1052.3</ele>
        <time>2024-05-20T09:29:00Z</time>
      </trkpt>
      <trkpt lat="44.70209" lon="5.51487">
        <ele>1051.82</ele>
        <time>2024-05-20T09:29:16Z</time>
      </trkpt>
      <trkpt lat="44.70225" lon="5.51502">
        <ele>1051.82</ele>
        <time>2024-05-20T09:29:32Z</time>
      </trkpt>
      <trkpt lat="44.70243" lon="5.51513">
        <ele>1050.86</ele>
        <time>2024-05-20T09:29:50Z</time>
      </trkpt>
      <trkpt lat="44.70261" lon="5.51523">
        <ele>1048.94</ele>
        <time>2024-05-20T09:30:07Z</time>
      </trkpt>
      <trkpt lat="44.7027" lon="5.5153">
        <ele>1047.97</ele>
        <time>2024-05-20T09:30:16Z</time>
      </trkpt>
      <trkpt lat="44.70288" lon="5.51549">
        <ele>1046.53</ele>
        <time>2024-05-20T09:30:33Z</time>
      </trkpt>
      <trkpt lat="44.70291" lon="5.51555">
        <ele>1046.05</ele>
        <time>2024-05-20T09:30:37Z</time>
      </trkpt>
      <trkpt lat="44.70303" lon="5.51588">
        <ele>1044.13</ele>
        <time>2024-05-20T09:30:56Z</time>
      </trkpt>
      <trkpt lat="44.70313" lon="5.51611">
        <ele>1043.17</ele>
        <time>2024-05-20T09:31:12Z</time>
      </trkpt>
      <trkpt lat="44.70331" lon="5.5163">
        <ele>1041.73</ele>
        <time>2024-05-20T09:31:31Z</time>
      </trkpt>
      <trkpt lat="44.70348" lon="5.5164">
        <ele>1039.8</ele>
        <time>2024-05-20T09:31:49Z</time>
      </trkpt>
      <trkpt lat="44.70369" lon="5.51646">
        <ele>1037.4</ele>
        <time>2024-05-20T09:32:06Z</time>
      </trkpt>
      <trkpt lat="44.70382" lon="5.51643">
        <ele>1036.44</ele>
        <time>2024-05-20T09:32:19Z</time>
      </trkpt>
      <trkpt lat="44.70395" lon="5.51644">
        <ele>1035</ele>
        <time>2024-05-20T09:32:33Z</time>
      </trkpt>
      <trkpt lat="44.7041" lon="5.51647">
        <ele>1033.07</ele>
        <time>2024-05-20T09:32:47Z</time>
      </trkpt>
      <trkpt lat="44.70426" lon="5.51656">
        <ele>1032.11</ele>
        <time>2024-05-20T09:33:01Z</time>
      </trkpt>
      <trkpt lat="44.70435" lon="5.51663">
        <ele>1031.63</ele>
        <time>2024-05-20T09:33:09Z</time>
      </trkpt>
      <trkpt lat="44.70452" lon="5.5168">
        <ele>1029.23</ele>
        <time>2024-05-20T09:33:23Z</time>
      </trkpt>
      <trkpt lat="44.70463" lon="5.517">
        <ele>1026.83</ele>
        <time>2024-05-20T09:33:36Z</time>
      </trkpt>
      <trkpt lat="44.70477" lon="5.51718">
        <ele>1024.9</ele>
        <time>2024-05-20T09:33:50Z</time>
      </trkpt>
      <trkpt lat="44.70479" lon="5.51721">
        <ele>1024.42</ele>
        <time>2024-05-20T09:33:52Z</time>
      </trkpt>
      <trkpt lat="44.70492" lon="5.51734">
        <ele>1023.46</ele>
        <time>2024-05-20T09:34:04Z</time>
      </trkpt>
      <trkpt lat="44.70505" lon="5.5176">
        <ele>1021.54</ele>
        <time>2024-05-20T09:34:20Z</time>
      </trkpt>
      <trkpt lat="44.70512" lon="5.51787">
        <ele>1019.62</ele>
        <time>2024-05-20T09:34:34Z</time>
      </trkpt>
      <trkpt lat="44.70523" lon="5.51811">
        <ele>1018.17</ele>
        <time>2024-05-20T09:34:47Z</time>
      </trkpt>
      <trkpt lat="44.70524" lon="5.51813">
        <ele>1018.17</ele>
        <time>2024-05-20T09:34:48Z</time>
      </trkpt>
      <trkpt lat="44.70538" lon="5.5183">
        <ele>1016.25</ele>
        <time>2024-05-20T09:35:03Z</time>
      </trkpt>
      <trkpt lat="44.7055" lon="5.51845">
        <ele>1014.81</ele>
        <time>2024-05-20T09:35:16Z</time>
      </trkpt>
      <trkpt lat="44.70554" lon="5.51855">
        <ele>1013.37</ele>
        <time>2024-05-20T09:35:22Z</time>
      </trkpt>
      <trkpt lat="44.7056" lon="5.51874">
        <ele>1011.93</ele>
        <time>2024-05-20T09:35:34Z</time>
      </trkpt>
      <trkpt lat="44.70563" lon="5.51908">
        <ele>1013.85</ele>
        <time>2024-05-20T09:40:59Z</time>
      </trkpt>
      <trkpt lat="44.70574" lon="5.5192">
        <ele>1016.25</ele>
        <time>2024-05-20T09:41:14Z</time>
      </trkpt>
      <trkpt lat="44.70586" lon="5.51926">
        <ele>1018.17</ele>
        <time>2024-05-20T09:41:29Z</time>
      </trkpt>
      <trkpt lat="44.70598" lon="5.5193">
        <ele>1020.58</ele>
        <time>2024-05-20T09:41:44Z</time>
      </trkpt>
      <trkpt lat="44.70611" lon="5.51934">
        <ele>1022.98</ele>
        <time>2024-05-20T09:42:01Z</time>
      </trkpt>
      <trkpt lat="44.70621" lon="5.51938">
        <ele>1025.38</ele>
        <time>2024-05-20T09:42:15Z</time>
      </trkpt>
      <trkpt lat="44.70634" lon="5.51936">
        <ele>1027.79</ele>
        <time>2024-05-20T09:42:33Z</time>
      </trkpt>
      <trkpt lat="44.70646" lon="5.51934">
        <ele>1030.19</ele>
        <time>2024-05-20T09:42:52Z</time>
      </trkpt>
      <trkpt lat="44.70659" lon="5.51934">
        <ele>1032.59</ele>
        <time>2024-05-20T09:43:09Z</time>
      </trkpt>
      <trkpt lat="44.70672" lon="5.51934">
        <ele>1033.55</ele>
        <time>2024-05-20T09:43:28Z</time>
      </trkpt>
      <trkpt lat="44.7068" lon="5.51939">
        <ele>1035</ele>
        <time>2024-05-20T09:43:42Z</time>
      </trkpt>
      <trkpt lat="44.70688" lon="5.51941">
        <ele>1037.4</ele>
        <time>2024-05-20T09:43:56Z</time>
      </trkpt>
      <trkpt lat="44.70697" lon="5.51945">
        <ele>1040.28</ele>
        <time>2024-05-20T09:44:14Z</time>
      </trkpt>
      <trkpt lat="44.7071" lon="5.5195">
        <ele>1043.65</ele>
        <time>2024-05-20T09:44:33Z</time>
      </trkpt>
      <trkpt lat="44.70726" lon="5.51953">
        <ele>1045.57</ele>
        <time>2024-05-20T09:44:52Z</time>
      </trkpt>
      <trkpt lat="44.70737" lon="5.51958">
        <ele>1046.53</ele>
        <time>2024-05-20T09:45:07Z</time>
      </trkpt>
      <trkpt lat="44.70748" lon="5.51965">
        <ele>1048.45</ele>
        <time>2024-05-20T09:45:25Z</time>
      </trkpt>
      <trkpt lat="44.70759" lon="5.51974">
        <ele>1049.9</ele>
        <time>2024-05-20T09:45:39Z</time>
      </trkpt>
      <trkpt lat="44.70772" lon="5.51981">
        <ele>1051.34</ele>
        <time>2024-05-20T09:45:54Z</time>
      </trkpt>
      <trkpt lat="44.70785" lon="5.51988">
        <ele>1053.26</ele>
        <time>2024-05-20T09:46:10Z</time>
      </trkpt>
      <trkpt lat="44.70794" lon="5.5199">
        <ele>1055.18</ele>
        <time>2024-05-20T09:46:27Z</time>
      </trkpt>
      <trkpt lat="44.70788" lon="5.51976">
        <ele>1056.63</ele>
        <time>2024-05-20T09:46:43Z</time>
      </trkpt>
      <trkpt lat="44.70779" lon="5.51969">
        <ele>1058.55</ele>
        <time>2024-05-20T09:46:58Z</time>
      </trkpt>
      <trkpt lat="44.70769" lon="5.5196">
        <ele>1059.99</ele>
        <time>2024-05-20T09:47:12Z</time>
      </trkpt>
      <trkpt lat="44.70756" lon="5.51949">
        <ele>1061.43</ele>
        <time>2024-05-20T09:47:28Z</time>
      </trkpt>
      <trkpt lat="44.7075" lon="5.51936">
        <ele>1062.39</ele>
        <time>2024-05-20T09:47:42Z</time>
      </trkpt>
      <trkpt lat="44.70743" lon="5.51923">
        <ele>1065.28</ele>
        <time>2024-05-20T09:47:59Z</time>
      </trkpt>
      <trkpt lat="44.70734" lon="5.51915">
        <ele>1067.2</ele>
        <time>2024-05-20T09:48:14Z</time>
      </trkpt>
      <trkpt lat="44.70726" lon="5.519">
        <ele>1070.08</ele>
        <time>2024-05-20T09:48:31Z</time>
      </trkpt>
      <trkpt lat="44.70716" lon="5.51892">
        <ele>1071.53</ele>
        <time>2024-05-20T09:48:47Z</time>
      </trkpt>
      <trkpt lat="44.70709" lon="5.51888">
        <ele>1072.01</ele>
        <time>2024-05-20T09:49:09Z</time>
      </trkpt>
      <trkpt lat="44.70705" lon="5.51887">
        <ele>1072.49</ele>
        <time>2024-05-20T09:49:28Z</time>
      </trkpt>
      <trkpt lat="44.70712" lon="5.51883">
        <ele>1073.45</ele>
        <time>2024-05-20T09:49:51Z</time>
      </trkpt>
      <trkpt lat="44.70721" lon="5.51886">
        <ele>1076.33</ele>
        <time>2024-05-20T09:50:07Z</time>
      </trkpt>
      <trkpt lat="44.70729" lon="5.51888">
        <ele>1078.26</ele>
        <time>2024-05-20T09:50:22Z</time>
      </trkpt>
      <trkpt lat="44.70739" lon="5.51899">
        <ele>1082.58</ele>
        <time>2024-05-20T09:52:42Z</time>
      </trkpt>
      <trkpt lat="44.70747" lon="5.51901">
        <ele>1085.47</ele>
        <time>2024-05-20T09:52:58Z</time>
      </trkpt>
      <trkpt lat="44.70757" lon="5.51903">
        <ele>1088.83</ele>
        <time>2024-05-20T09:53:13Z</time>
      </trkpt>
      <trkpt lat="44.70768" lon="5.51904">
        <ele>1090.75</ele>
        <time>2024-05-20T09:53:30Z</time>
      </trkpt>
      <trkpt lat="44.70777" lon="5.51901">
        <ele>1093.64</ele>
        <time>2024-05-20T09:53:48Z</time>
      </trkpt>
      <trkpt lat="44.7079" lon="5.51898">
        <ele>1097</ele>
        <time>2024-05-20T09:54:07Z</time>
      </trkpt>
      <trkpt lat="44.70801" lon="5.51901">
        <ele>1100.37</ele>
        <time>2024-05-20T09:55:03Z</time>
      </trkpt>
      <trkpt lat="44.70809" lon="5.51903">
        <ele>1098.92</ele>
        <time>2024-05-20T09:55:14Z</time>
      </trkpt>
      <trkpt lat="44.70819" lon="5.519">
        <ele>1095.56</ele>
        <time>2024-05-20T09:55:29Z</time>
      </trkpt>
      <trkpt lat="44.7083" lon="5.51894">
        <ele>1093.64</ele>
        <time>2024-05-20T09:55:44Z</time>
      </trkpt>
      <trkpt lat="44.70841" lon="5.51883">
        <ele>1093.16</ele>
        <time>2024-05-20T09:55:59Z</time>
      </trkpt>
      <trkpt lat="44.7085" lon="5.51874">
        <ele>1093.16</ele>
        <time>2024-05-20T09:56:14Z</time>
      </trkpt>
      <trkpt lat="44.70865" lon="5.51866">
        <ele>1092.68</ele>
        <time>2024-05-20T09:56:32Z</time>
      </trkpt>
      <trkpt lat="44.70866" lon="5.51865">
        <ele>1092.68</ele>
        <time>2024-05-20T09:56:57Z</time>
      </trkpt>
      <trkpt lat="44.70871" lon="5.51863">
        <ele>1092.68</ele>
        <time>2024-05-20T09:57:17Z</time>
      </trkpt>
      <trkpt lat="44.70876" lon="5.51856">
        <ele>1091.71</ele>
        <time>2024-05-20T09:57:55Z</time>
      </trkpt>
      <trkpt lat="44.70884" lon="5.51849">
        <ele>1089.79</ele>
        <time>2024-05-20T09:58:10Z</time>
      </trkpt>
      <trkpt lat="44.709" lon="5.51845">
        <ele>1087.87</ele>
        <time>2024-05-20T09:58:27Z</time>
      </trkpt>
      <trkpt lat="44.70919" lon="5.51844">
        <ele>1086.43</ele>
        <time>2024-05-20T09:58:42Z</time>
      </trkpt>
      <trkpt lat="44.70932" lon="5.51849">
        <ele>1085.47</ele>
        <time>2024-05-20T09:58:57Z</time>
      </trkpt>
      <trkpt lat="44.70944" lon="5.51852">
        <ele>1083.06</ele>
        <time>2024-05-20T09:59:11Z</time>
      </trkpt>
      <trkpt lat="44.70959" lon="5.51865">
        <ele>1080.18</ele>
        <time>2024-05-20T09:59:27Z</time>
      </trkpt>
      <trkpt lat="44.70968" lon="5.51867">
        <ele>1077.78</ele>
        <time>2024-05-20T09:59:43Z</time>
      </trkpt>
      <trkpt lat="44.70973" lon="5.51873">
        <ele>1076.33</ele>
        <time>2024-05-20T10:00:04Z</time>
      </trkpt>
      <trkpt lat="44.70974" lon="5.51875">
        <ele>1075.85</ele>
        <time>2024-05-20T10:00:23Z</time>
      </trkpt>
      <trkpt lat="44.70975" lon="5.51877">
        <ele>1076.33</ele>
        <time>2024-05-20T10:01:08Z</time>
      </trkpt>
      <trkpt lat="44.70979" lon="5.51877">
        <ele>1075.85</ele>
        <time>2024-05-20T10:01:27Z</time>
      </trkpt>
      <trkpt lat="44.70985" lon="5.51877">
        <ele>1073.45</ele>
        <time>2024-05-20T10:01:44Z</time>
      </trkpt>
      <trkpt lat="44.70994" lon="5.5188">
        <ele>1070.08</ele>
        <time>2024-05-20T10:02:00Z</time>
      </trkpt>
      <trkpt lat="44.71006" lon="5.51884">
        <ele>1067.68</ele>
        <time>2024-05-20T10:02:16Z</time>
      </trkpt>
      <trkpt lat="44.71017" lon="5.51889">
        <ele>1066.24</ele>
        <time>2024-05-20T10:02:30Z</time>
      </trkpt>
      <trkpt lat="44.7103" lon="5.51894">
        <ele>1063.36</ele>
        <time>2024-05-20T10:02:45Z</time>
      </trkpt>
      <trkpt lat="44.71039" lon="5.51903">
        <ele>1061.91</ele>
        <time>2024-05-20T10:02:59Z</time>
      </trkpt>
      <trkpt lat="44.71049" lon="5.51913">
        <ele>1061.91</ele>
        <time>2024-05-20T10:03:16Z</time>
      </trkpt>
      <trkpt lat="44.71056" lon="5.51927">
        <ele>1058.55</ele>
        <time>2024-05-20T10:03:32Z</time>
      </trkpt>
      <trkpt lat="44.71066" lon="5.51939">
        <ele>1055.67</ele>
        <time>2024-05-20T10:03:46Z</time>
      </trkpt>
      <trkpt lat="44.71075" lon="5.5195">
        <ele>1053.26</ele>
        <time>2024-05-20T10:04:00Z</time>
      </trkpt>
      <trkpt lat="44.71084" lon="5.51958">
        <ele>1050.38</ele>
        <time>2024-05-20T10:04:12Z</time>
      </trkpt>
      <trkpt lat="44.71091" lon="5.51965">
        <ele>1047.01</ele>
        <time>2024-05-20T10:04:24Z</time>
      </trkpt>
      <trkpt lat="44.71101" lon="5.51969">
        <ele>1044.61</ele>
        <time>2024-05-20T10:04:38Z</time>
      </trkpt>
      <trkpt lat="44.71108" lon="5.51977">
        <ele>1042.69</ele>
        <time>2024-05-20T10:04:51Z</time>
      </trkpt>
      <trkpt lat="44.71117" lon="5.5199">
        <ele>1040.76</ele>
        <time>2024-05-20T10:05:05Z</time>
      </trkpt>
      <trkpt lat="44.71125" lon="5.52004">
        <ele>1037.88</ele>
        <time>2024-05-20T10:05:19Z</time>
      </trkpt>
      <trkpt lat="44.71137" lon="5.52025">
        <ele>1035.48</ele>
        <time>2024-05-20T10:05:35Z</time>
      </trkpt>
      <trkpt lat="44.71138" lon="5.52029">
        <ele>1035.48</ele>
        <time>2024-05-20T10:05:37Z</time>
      </trkpt>
      <trkpt lat="44.71142" lon="5.52037">
        <ele>1035</ele>
        <time>2024-05-20T10:05:43Z</time>
      </trkpt>
      <trkpt lat="44.71148" lon="5.52056">
        <ele>1034.52</ele>
        <time>2024-05-20T10:06:01Z</time>
      </trkpt>
      <trkpt lat="44.7115" lon="5.52067">
        <ele>1037.4</ele>
        <time>2024-05-20T11:00:37Z</time>
      </trkpt>
      <trkpt lat="44.71153" lon="5.52073">
        <ele>1038.36</ele>
        <time>2024-05-20T11:00:58Z</time>
      </trkpt>
      <trkpt lat="44.71155" lon="5.52077">
        <ele>1036.92</ele>
        <time>2024-05-20T11:01:01Z</time>
      </trkpt>
      <trkpt lat="44.71162" lon="5.52094">
        <ele>1035</ele>
        <time>2024-05-20T11:01:17Z</time>
      </trkpt>
      <trkpt lat="44.71173" lon="5.52116">
        <ele>1034.52</ele>
        <time>2024-05-20T11:01:32Z</time>
      </trkpt>
      <trkpt lat="44.71183" lon="5.52137">
        <ele>1035.48</ele>
        <time>2024-05-20T11:01:47Z</time>
      </trkpt>
      <trkpt lat="44.71193" lon="5.52152">
        <ele>1036.44</ele>
        <time>2024-05-20T11:02:02Z</time>
      </trkpt>
      <trkpt lat="44.71195" lon="5.52153">
        <ele>1035</ele>
        <time>2024-05-20T11:02:04Z</time>
      </trkpt>
      <trkpt lat="44.71203" lon="5.52158">
        <ele>1032.11</ele>
        <time>2024-05-20T11:02:13Z</time>
      </trkpt>
      <trkpt lat="44.71215" lon="5.52164">
        <ele>1029.23</ele>
        <time>2024-05-20T11:02:27Z</time>
      </trkpt>
      <trkpt lat="44.71226" lon="5.5217">
        <ele>1025.86</ele>
        <time>2024-05-20T11:02:40Z</time>
      </trkpt>
      <trkpt lat="44.71231" lon="5.52173">
        <ele>1022.98</ele>
        <time>2024-05-20T11:02:48Z</time>
      </trkpt>
      <trkpt lat="44.7124" lon="5.52179">
        <ele>1020.1</ele>
        <time>2024-05-20T11:03:00Z</time>
      </trkpt>
      <trkpt lat="44.71247" lon="5.52178">
        <ele>1018.17</ele>
        <time>2024-05-20T11:03:11Z</time>
      </trkpt>
      <trkpt lat="44.71259" lon="5.52177">
        <ele>1015.29</ele>
        <time>2024-05-20T11:03:25Z</time>
      </trkpt>
      <trkpt lat="44.7127" lon="5.52174">
        <ele>1012.41</ele>
        <time>2024-05-20T11:03:37Z</time>
      </trkpt>
      <trkpt lat="44.71279" lon="5.52173">
        <ele>1009.04</ele>
        <time>2024-05-20T11:03:48Z</time>
      </trkpt>
      <trkpt lat="44.71291" lon="5.52173">
        <ele>1005.68</ele>
        <time>2024-05-20T11:03:59Z</time>
      </trkpt>
      <trkpt lat="44.71302" lon="5.52172">
        <ele>1002.31</ele>
        <time>2024-05-20T11:04:12Z</time>
      </trkpt>
      <trkpt lat="44.71314" lon="5.52168">
        <ele>998.95</ele>
        <time>2024-05-20T11:04:26Z</time>
      </trkpt>
      <trkpt lat="44.71328" lon="5.52164">
        <ele>996.54</ele>
        <time>2024-05-20T11:04:38Z</time>
      </trkpt>
      <trkpt lat="44.71345" lon="5.52162">
        <ele>994.62</ele>
        <time>2024-05-20T11:04:53Z</time>
      </trkpt>
      <trkpt lat="44.71352" lon="5.5216">
        <ele>992.22</ele>
        <time>2024-05-20T11:05:09Z</time>
      </trkpt>
      <trkpt lat="44.71359" lon="5.52153">
        <ele>990.78</ele>
        <time>2024-05-20T11:05:23Z</time>
      </trkpt>
      <trkpt lat="44.71362" lon="5.52149">
        <ele>989.81</ele>
        <time>2024-05-20T11:05:41Z</time>
      </trkpt>
      <trkpt lat="44.7137" lon="5.52147">
        <ele>988.85</ele>
        <time>2024-05-20T11:05:57Z</time>
      </trkpt>
      <trkpt lat="44.71375" lon="5.52148">
        <ele>988.37</ele>
        <time>2024-05-20T11:06:16Z</time>
      </trkpt>
      <trkpt lat="44.71378" lon="5.52148">
        <ele>987.89</ele>
        <time>2024-05-20T11:07:14Z</time>
      </trkpt>
      <trkpt lat="44.71384" lon="5.52145">
        <ele>984.53</ele>
        <time>2024-05-20T11:07:23Z</time>
      </trkpt>
      <trkpt lat="44.7139" lon="5.52142">
        <ele>981.16</ele>
        <time>2024-05-20T11:07:35Z</time>
      </trkpt>
      <trkpt lat="44.71407" lon="5.52137">
        <ele>978.28</ele>
        <time>2024-05-20T11:07:50Z</time>
      </trkpt>
      <trkpt lat="44.71416" lon="5.52135">
        <ele>977.32</ele>
        <time>2024-05-20T11:08:03Z</time>
      </trkpt>
      <trkpt lat="44.7143" lon="5.52134">
        <ele>973.95</ele>
        <time>2024-05-20T11:08:15Z</time>
      </trkpt>
      <trkpt lat="44.71436" lon="5.52129">
        <ele>972.51</ele>
        <time>2024-05-20T11:08:32Z</time>
      </trkpt>
      <trkpt lat="44.71444" lon="5.52124">
        <ele>972.03</ele>
        <time>2024-05-20T11:08:45Z</time>
      </trkpt>
      <trkpt lat="44.71454" lon="5.52123">
        <ele>970.59</ele>
        <time>2024-05-20T11:08:58Z</time>
      </trkpt>
      <trkpt lat="44.71463" lon="5.52123">
        <ele>968.18</ele>
        <time>2024-05-20T11:12:38Z</time>
      </trkpt>
      <trkpt lat="44.71471" lon="5.52125">
        <ele>968.67</ele>
        <time>2024-05-20T11:13:03Z</time>
      </trkpt>
      <trkpt lat="44.71478" lon="5.52126">
        <ele>966.26</ele>
        <time>2024-05-20T11:13:11Z</time>
      </trkpt>
      <trkpt lat="44.71497" lon="5.52127">
        <ele>963.86</ele>
        <time>2024-05-20T11:13:25Z</time>
      </trkpt>
      <trkpt lat="44.71513" lon="5.52129">
        <ele>960.49</ele>
        <time>2024-05-20T11:13:38Z</time>
      </trkpt>
      <trkpt lat="44.71526" lon="5.5213">
        <ele>959.05</ele>
        <time>2024-05-20T11:13:50Z</time>
      </trkpt>
      <trkpt lat="44.7154" lon="5.52135">
        <ele>956.65</ele>
        <time>2024-05-20T11:14:03Z</time>
      </trkpt>
      <trkpt lat="44.71552" lon="5.52137">
        <ele>953.77</ele>
        <time>2024-05-20T11:14:16Z</time>
      </trkpt>
      <trkpt lat="44.71552" lon="5.52139">
        <ele>952.32</ele>
        <time>2024-05-20T11:14:21Z</time>
      </trkpt>
      <trkpt lat="44.71544" lon="5.52144">
        <ele>949.92</ele>
        <time>2024-05-20T11:14:34Z</time>
      </trkpt>
      <trkpt lat="44.71545" lon="5.52151">
        <ele>947.52</ele>
        <time>2024-05-20T11:14:47Z</time>
      </trkpt>
      <trkpt lat="44.71553" lon="5.52155">
        <ele>944.63</ele>
        <time>2024-05-20T11:14:59Z</time>
      </trkpt>
      <trkpt lat="44.71568" lon="5.52147">
        <ele>941.75</ele>
        <time>2024-05-20T11:15:17Z</time>
      </trkpt>
      <trkpt lat="44.71578" lon="5.52134">
        <ele>938.38</ele>
        <time>2024-05-20T11:15:34Z</time>
      </trkpt>
      <trkpt lat="44.71589" lon="5.52124">
        <ele>935.5</ele>
        <time>2024-05-20T11:15:48Z</time>
      </trkpt>
      <trkpt lat="44.71602" lon="5.5212">
        <ele>933.1</ele>
        <time>2024-05-20T11:16:03Z</time>
      </trkpt>
      <trkpt lat="44.71603" lon="5.52121">
        <ele>932.62</ele>
        <time>2024-05-20T11:16:19Z</time>
      </trkpt>
      <trkpt lat="44.71603" lon="5.52127">
        <ele>931.65</ele>
        <time>2024-05-20T11:16:24Z</time>
      </trkpt>
      <trkpt lat="44.71599" lon="5.52143">
        <ele>929.25</ele>
        <time>2024-05-20T11:16:40Z</time>
      </trkpt>
      <trkpt lat="44.71591" lon="5.52163">
        <ele>925.89</ele>
        <time>2024-05-20T11:16:55Z</time>
      </trkpt>
      <trkpt lat="44.71585" lon="5.52176">
        <ele>924.45</ele>
        <time>2024-05-20T11:17:09Z</time>
      </trkpt>
      <trkpt lat="44.71581" lon="5.52183">
        <ele>923.48</ele>
        <time>2024-05-20T11:17:15Z</time>
      </trkpt>
      <trkpt lat="44.71575" lon="5.52191">
        <ele>922.04</ele>
        <time>2024-05-20T11:17:22Z</time>
      </trkpt>
      <trkpt lat="44.71573" lon="5.52194">
        <ele>921.56</ele>
        <time>2024-05-20T11:17:25Z</time>
      </trkpt>
      <trkpt lat="44.71562" lon="5.52206">
        <ele>919.16</ele>
        <time>2024-05-20T11:17:36Z</time>
      </trkpt>
      <trkpt lat="44.71556" lon="5.52218">
        <ele>916.75</ele>
        <time>2024-05-20T11:17:50Z</time>
      </trkpt>
      <trkpt lat="44.71564" lon="5.52219">
        <ele>914.35</ele>
        <time>2024-05-20T11:18:05Z</time>
      </trkpt>
      <trkpt lat="44.7158" lon="5.52213">
        <ele>910.99</ele>
        <time>2024-05-20T11:18:20Z</time>
      </trkpt>
      <trkpt lat="44.71596" lon="5.52207">
        <ele>908.1</ele>
        <time>2024-05-20T11:18:34Z</time>
      </trkpt>
      <trkpt lat="44.71596" lon="5.52218">
        <ele>905.7</ele>
        <time>2024-05-20T11:18:48Z</time>
      </trkpt>
      <trkpt lat="44.71589" lon="5.5223">
        <ele>903.78</ele>
        <time>2024-05-20T11:18:59Z</time>
      </trkpt>
      <trkpt lat="44.71582" lon="5.5224">
        <ele>902.33</ele>
        <time>2024-05-20T11:19:09Z</time>
      </trkpt>
      <trkpt lat="44.71579" lon="5.52244">
        <ele>901.85</ele>
        <time>2024-05-20T11:19:13Z</time>
      </trkpt>
      <trkpt lat="44.71562" lon="5.52261">
        <ele>898.97</ele>
        <time>2024-05-20T11:19:30Z</time>
      </trkpt>
      <trkpt lat="44.71548" lon="5.52275">
        <ele>895.61</ele>
        <time>2024-05-20T11:19:46Z</time>
      </trkpt>
      <trkpt lat="44.71555" lon="5.52278">
        <ele>893.2</ele>
        <time>2024-05-20T11:19:59Z</time>
      </trkpt>
      <trkpt lat="44.71578" lon="5.52277">
        <ele>889.84</ele>
        <time>2024-05-20T11:20:16Z</time>
      </trkpt>
      <trkpt lat="44.71571" lon="5.52289">
        <ele>887.43</ele>
        <time>2024-05-20T11:20:29Z</time>
      </trkpt>
      <trkpt lat="44.71559" lon="5.52297">
        <ele>885.51</ele>
        <time>2024-05-20T11:20:42Z</time>
      </trkpt>
      <trkpt lat="44.71546" lon="5.52302">
        <ele>882.63</ele>
        <time>2024-05-20T11:20:55Z</time>
      </trkpt>
      <trkpt lat="44.71531" lon="5.52297">
        <ele>880.22</ele>
        <time>2024-05-20T11:21:09Z</time>
      </trkpt>
      <trkpt lat="44.7152" lon="5.52297">
        <ele>878.3</ele>
        <time>2024-05-20T11:21:24Z</time>
      </trkpt>
      <trkpt lat="44.71526" lon="5.52308">
        <ele>875.42</ele>
        <time>2024-05-20T11:21:36Z</time>
      </trkpt>
      <trkpt lat="44.71528" lon="5.52312">
        <ele>875.42</ele>
        <time>2024-05-20T11:21:39Z</time>
      </trkpt>
      <trkpt lat="44.71538" lon="5.52329">
        <ele>872.05</ele>
        <time>2024-05-20T11:21:53Z</time>
      </trkpt>
      <trkpt lat="44.71549" lon="5.52342">
        <ele>869.17</ele>
        <time>2024-05-20T11:22:06Z</time>
      </trkpt>
      <trkpt lat="44.71563" lon="5.52354">
        <ele>866.29</ele>
        <time>2024-05-20T11:22:20Z</time>
      </trkpt>
      <trkpt lat="44.71562" lon="5.52355">
        <ele>866.29</ele>
        <time>2024-05-20T11:22:22Z</time>
      </trkpt>
      <trkpt lat="44.71547" lon="5.5236">
        <ele>863.4</ele>
        <time>2024-05-20T11:22:37Z</time>
      </trkpt>
      <trkpt lat="44.71538" lon="5.52361">
        <ele>861.48</ele>
        <time>2024-05-20T11:22:49Z</time>
      </trkpt>
      <trkpt lat="44.71544" lon="5.52377">
        <ele>858.59</ele>
        <time>2024-05-20T11:23:02Z</time>
      </trkpt>
      <trkpt lat="44.71553" lon="5.52387">
        <ele>855.23</ele>
        <time>2024-05-20T11:23:15Z</time>
      </trkpt>
      <trkpt lat="44.71549" lon="5.52392">
        <ele>852.35</ele>
        <time>2024-05-20T11:23:30Z</time>
      </trkpt>
      <trkpt lat="44.71538" lon="5.52386">
        <ele>850.42</ele>
        <time>2024-05-20T11:23:44Z</time>
      </trkpt>
      <trkpt lat="44.71528" lon="5.52377">
        <ele>847.54</ele>
        <time>2024-05-20T11:23:58Z</time>
      </trkpt>
      <trkpt lat="44.71524" lon="5.52381">
        <ele>844.66</ele>
        <time>2024-05-20T11:24:07Z</time>
      </trkpt>
      <trkpt lat="44.71527" lon="5.52394">
        <ele>841.29</ele>
        <time>2024-05-20T11:24:19Z</time>
      </trkpt>
      <trkpt lat="44.71533" lon="5.52411">
        <ele>838.41</ele>
        <time>2024-05-20T11:24:31Z</time>
      </trkpt>
      <trkpt lat="44.71544" lon="5.52425">
        <ele>835.04</ele>
        <time>2024-05-20T11:24:44Z</time>
      </trkpt>
      <trkpt lat="44.71553" lon="5.52433">
        <ele>832.64</ele>
        <time>2024-05-20T11:24:55Z</time>
      </trkpt>
      <trkpt lat="44.71566" lon="5.52448">
        <ele>823.51</ele>
        <time>2024-05-20T11:27:13Z</time>
      </trkpt>
      <trkpt lat="44.71581" lon="5.52453">
        <ele>820.14</ele>
        <time>2024-05-20T11:27:25Z</time>
      </trkpt>
      <trkpt lat="44.71594" lon="5.52456">
        <ele>816.78</ele>
        <time>2024-05-20T11:27:37Z</time>
      </trkpt>
      <trkpt lat="44.71602" lon="5.52456">
        <ele>815.82</ele>
        <time>2024-05-20T11:27:48Z</time>
      </trkpt>
      <trkpt lat="44.71609" lon="5.5246">
        <ele>813.89</ele>
        <time>2024-05-20T11:28:00Z</time>
      </trkpt>
      <trkpt lat="44.71622" lon="5.52472">
        <ele>811.49</ele>
        <time>2024-05-20T11:28:15Z</time>
      </trkpt>
      <trkpt lat="44.71614" lon="5.52476">
        <ele>808.61</ele>
        <time>2024-05-20T11:28:29Z</time>
      </trkpt>
      <trkpt lat="44.71608" lon="5.52478">
        <ele>806.2</ele>
        <time>2024-05-20T11:28:36Z</time>
      </trkpt>
      <trkpt lat="44.71595" lon="5.52482">
        <ele>803.32</ele>
        <time>2024-05-20T11:28:50Z</time>
      </trkpt>
      <trkpt lat="44.71588" lon="5.52487">
        <ele>801.4</ele>
        <time>2024-05-20T11:28:58Z</time>
      </trkpt>
      <trkpt lat="44.71575" lon="5.52496">
        <ele>799.47</ele>
        <time>2024-05-20T11:29:10Z</time>
      </trkpt>
      <trkpt lat="44.71563" lon="5.52512">
        <ele>796.59</ele>
        <time>2024-05-20T11:29:25Z</time>
      </trkpt>
      <trkpt lat="44.71556" lon="5.52513">
        <ele>795.15</ele>
        <time>2024-05-20T11:29:30Z</time>
      </trkpt>
      <trkpt lat="44.71541" lon="5.52513">
        <ele>791.78</ele>
        <time>2024-05-20T11:29:43Z</time>
      </trkpt>
      <trkpt lat="44.71533" lon="5.52519">
        <ele>788.9</ele>
        <time>2024-05-20T11:29:55Z</time>
      </trkpt>
      <trkpt lat="44.7153" lon="5.52528">
        <ele>786.5</ele>
        <time>2024-05-20T11:30:07Z</time>
      </trkpt>
      <trkpt lat="44.71514" lon="5.52526">
        <ele>783.61</ele>
        <time>2024-05-20T11:30:22Z</time>
      </trkpt>
      <trkpt lat="44.71502" lon="5.52518">
        <ele>782.17</ele>
        <time>2024-05-20T11:30:35Z</time>
      </trkpt>
      <trkpt lat="44.71495" lon="5.52516">
        <ele>781.69</ele>
        <time>2024-05-20T11:30:46Z</time>
      </trkpt>
      <trkpt lat="44.71494" lon="5.5252">
        <ele>779.29</ele>
        <time>2024-05-20T11:30:58Z</time>
      </trkpt>
      <trkpt lat="44.71504" lon="5.52534">
        <ele>776.88</ele>
        <time>2024-05-20T11:31:12Z</time>
      </trkpt>
      <trkpt lat="44.71512" lon="5.52548">
        <ele>774</ele>
        <time>2024-05-20T11:31:26Z</time>
      </trkpt>
      <trkpt lat="44.71516" lon="5.52563">
        <ele>771.11</ele>
        <time>2024-05-20T11:31:39Z</time>
      </trkpt>
      <trkpt lat="44.7152" lon="5.52577">
        <ele>767.75</ele>
        <time>2024-05-20T11:31:53Z</time>
      </trkpt>
      <trkpt lat="44.71517" lon="5.52584">
        <ele>765.35</ele>
        <time>2024-05-20T11:32:06Z</time>
      </trkpt>
      <trkpt lat="44.71507" lon="5.52581">
        <ele>762.46</ele>
        <time>2024-05-20T11:32:20Z</time>
      </trkpt>
      <trkpt lat="44.7151" lon="5.52592">
        <ele>759.58</ele>
        <time>2024-05-20T11:32:33Z</time>
      </trkpt>
      <trkpt lat="44.71517" lon="5.52604">
        <ele>756.69</ele>
        <time>2024-05-20T11:32:45Z</time>
      </trkpt>
      <trkpt lat="44.71524" lon="5.52614">
        <ele>754.29</ele>
        <time>2024-05-20T11:32:59Z</time>
      </trkpt>
      <trkpt lat="44.71533" lon="5.52624">
        <ele>751.41</ele>
        <time>2024-05-20T11:33:13Z</time>
      </trkpt>
      <trkpt lat="44.71532" lon="5.52623">
        <ele>750.45</ele>
        <time>2024-05-20T11:33:25Z</time>
      </trkpt>
      <trkpt lat="44.71523" lon="5.52622">
        <ele>749.49</ele>
        <time>2024-05-20T11:33:41Z</time>
      </trkpt>
      <trkpt lat="44.71517" lon="5.52618">
        <ele>748.04</ele>
        <time>2024-05-20T11:33:49Z</time>
      </trkpt>
      <trkpt lat="44.71506" lon="5.52612">
        <ele>745.16</ele>
        <time>2024-05-20T11:34:04Z</time>
      </trkpt>
      <trkpt lat="44.71506" lon="5.52622">
        <ele>741.79</ele>
        <time>2024-05-20T11:34:16Z</time>
      </trkpt>
      <trkpt lat="44.7151" lon="5.52633">
        <ele>739.39</ele>
        <time>2024-05-20T11:34:25Z</time>
      </trkpt>
      <trkpt lat="44.71517" lon="5.52644">
        <ele>736.51</ele>
        <time>2024-05-20T11:34:39Z</time>
      </trkpt>
      <trkpt lat="44.7151" lon="5.52648">
        <ele>734.1</ele>
        <time>2024-05-20T11:34:53Z</time>
      </trkpt>
      <trkpt lat="44.71514" lon="5.52656">
        <ele>730.74</ele>
        <time>2024-05-20T11:35:03Z</time>
      </trkpt>
      <trkpt lat="44.71531" lon="5.52671">
        <ele>727.86</ele>
        <time>2024-05-20T11:35:20Z</time>
      </trkpt>
      <trkpt lat="44.71529" lon="5.52673">
        <ele>725.45</ele>
        <time>2024-05-20T11:35:32Z</time>
      </trkpt>
      <trkpt lat="44.71526" lon="5.52673">
        <ele>724.01</ele>
        <time>2024-05-20T11:35:36Z</time>
      </trkpt>
      <trkpt lat="44.71517" lon="5.52674">
        <ele>721.61</ele>
        <time>2024-05-20T11:35:47Z</time>
      </trkpt>
      <trkpt lat="44.71504" lon="5.52671">
        <ele>717.76</ele>
        <time>2024-05-20T11:36:01Z</time>
      </trkpt>
      <trkpt lat="44.71501" lon="5.5267">
        <ele>717.28</ele>
        <time>2024-05-20T11:36:05Z</time>
      </trkpt>
      <trkpt lat="44.71495" lon="5.52671">
        <ele>714.4</ele>
        <time>2024-05-20T11:36:17Z</time>
      </trkpt>
      <trkpt lat="44.71497" lon="5.5268">
        <ele>711.99</ele>
        <time>2024-05-20T11:36:32Z</time>
      </trkpt>
      <trkpt lat="44.715" lon="5.52686">
        <ele>708.63</ele>
        <time>2024-05-20T11:36:42Z</time>
      </trkpt>
      <trkpt lat="44.71507" lon="5.52692">
        <ele>705.75</ele>
        <time>2024-05-20T11:36:53Z</time>
      </trkpt>
      <trkpt lat="44.71508" lon="5.52695">
        <ele>703.34</ele>
        <time>2024-05-20T11:37:04Z</time>
      </trkpt>
      <trkpt lat="44.71512" lon="5.52706">
        <ele>700.46</ele>
        <time>2024-05-20T11:37:17Z</time>
      </trkpt>
      <trkpt lat="44.71516" lon="5.52711">
        <ele>698.05</ele>
        <time>2024-05-20T11:37:29Z</time>
      </trkpt>
      <trkpt lat="44.71509" lon="5.52712">
        <ele>695.17</ele>
        <time>2024-05-20T11:37:42Z</time>
      </trkpt>
      <trkpt lat="44.71513" lon="5.52724">
        <ele>692.29</ele>
        <time>2024-05-20T11:37:57Z</time>
      </trkpt>
      <trkpt lat="44.71521" lon="5.52726">
        <ele>689.4</ele>
        <time>2024-05-20T11:38:29Z</time>
      </trkpt>
      <trkpt lat="44.71527" lon="5.52724">
        <ele>688.44</ele>
        <time>2024-05-20T11:38:46Z</time>
      </trkpt>
      <trkpt lat="44.7152" lon="5.52731">
        <ele>687.96</ele>
        <time>2024-05-20T11:39:07Z</time>
      </trkpt>
      <trkpt lat="44.71509" lon="5.52738">
        <ele>685.56</ele>
        <time>2024-05-20T11:39:19Z</time>
      </trkpt>
      <trkpt lat="44.71508" lon="5.52741">
        <ele>683.63</ele>
        <time>2024-05-20T11:39:31Z</time>
      </trkpt>
      <trkpt lat="44.71515" lon="5.52746">
        <ele>680.27</ele>
        <time>2024-05-20T11:39:43Z</time>
      </trkpt>
      <trkpt lat="44.71518" lon="5.5275">
        <ele>677.39</ele>
        <time>2024-05-20T11:39:54Z</time>
      </trkpt>
      <trkpt lat="44.71517" lon="5.52753">
        <ele>674.02</ele>
        <time>2024-05-20T11:40:08Z</time>
      </trkpt>
      <trkpt lat="44.71523" lon="5.52752">
        <ele>672.58</ele>
        <time>2024-05-20T11:40:20Z</time>
      </trkpt>
      <trkpt lat="44.71529" lon="5.52751">
        <ele>669.7</ele>
        <time>2024-05-20T11:40:30Z</time>
      </trkpt>
      <trkpt lat="44.71535" lon="5.52746">
        <ele>669.7</ele>
        <time>2024-05-20T11:40:43Z</time>
      </trkpt>
      <trkpt lat="44.71543" lon="5.52742">
        <ele>669.22</ele>
        <time>2024-05-20T11:41:01Z</time>
      </trkpt>
      <trkpt lat="44.71549" lon="5.52747">
        <ele>665.85</ele>
        <time>2024-05-20T11:41:12Z</time>
      </trkpt>
      <trkpt lat="44.71552" lon="5.52752">
        <ele>663.45</ele>
        <time>2024-05-20T11:41:21Z</time>
      </trkpt>
      <trkpt lat="44.71546" lon="5.52753">
        <ele>660.08</ele>
        <time>2024-05-20T11:41:33Z</time>
      </trkpt>
      <trkpt lat="44.71541" lon="5.52761">
        <ele>656.72</ele>
        <time>2024-05-20T11:41:44Z</time>
      </trkpt>
      <trkpt lat="44.71539" lon="5.5277">
        <ele>654.8</ele>
        <time>2024-05-20T11:41:58Z</time>
      </trkpt>
      <trkpt lat="44.71537" lon="5.52785">
        <ele>651.91</ele>
        <time>2024-05-20T11:42:11Z</time>
      </trkpt>
      <trkpt lat="44.71533" lon="5.52799">
        <ele>649.51</ele>
        <time>2024-05-20T11:42:25Z</time>
      </trkpt>
      <trkpt lat="44.71527" lon="5.52806">
        <ele>648.07</ele>
        <time>2024-05-20T11:42:33Z</time>
      </trkpt>
      <trkpt lat="44.71524" lon="5.5281">
        <ele>647.59</ele>
        <time>2024-05-20T11:42:36Z</time>
      </trkpt>
      <trkpt lat="44.71515" lon="5.52822">
        <ele>647.1</ele>
        <time>2024-05-20T11:42:50Z</time>
      </trkpt>
      <trkpt lat="44.71515" lon="5.52823">
        <ele>646.14</ele>
        <time>2024-05-20T11:43:11Z</time>
      </trkpt>
      <trkpt lat="44.71518" lon="5.52829">
        <ele>646.14</ele>
        <time>2024-05-20T11:43:28Z</time>
      </trkpt>
      <trkpt lat="44.71522" lon="5.52837">
        <ele>646.14</ele>
        <time>2024-05-20T11:43:39Z</time>
      </trkpt>
      <trkpt lat="44.71529" lon="5.52858">
        <ele>646.14</ele>
        <time>2024-05-20T11:43:57Z</time>
      </trkpt>
      <trkpt lat="44.71532" lon="5.52866">
        <ele>646.14</ele>
        <time>2024-05-20T11:44:04Z</time>
      </trkpt>
      <trkpt lat="44.71537" lon="5.52888">
        <ele>646.14</ele>
        <time>2024-05-20T11:44:20Z</time>
      </trkpt>
      <trkpt lat="44.71544" lon="5.52908">
        <ele>646.14</ele>
        <time>2024-05-20T11:44:37Z</time>
      </trkpt>
      <trkpt lat="44.7155" lon="5.52917">
        <ele>646.62</ele>
        <time>2024-05-20T11:49:31Z</time>
      </trkpt>
      <trkpt lat="44.71552" lon="5.52925">
        <ele>646.62</ele>
        <time>2024-05-20T11:49:48Z</time>
      </trkpt>
      <trkpt lat="44.71554" lon="5.52945">
        <ele>646.62</ele>
        <time>2024-05-20T11:50:01Z</time>
      </trkpt>
      <trkpt lat="44.71559" lon="5.52967">
        <ele>646.62</ele>
        <time>2024-05-20T11:50:16Z</time>
      </trkpt>
      <trkpt lat="44.7156" lon="5.52982">
        <ele>647.1</ele>
        <time>2024-05-20T11:50:29Z</time>
      </trkpt>
      <trkpt lat="44.71563" lon="5.53003">
        <ele>647.59</ele>
        <time>2024-05-20T11:50:43Z</time>
      </trkpt>
      <trkpt lat="44.71566" lon="5.5302">
        <ele>648.55</ele>
        <time>2024-05-20T11:50:53Z</time>
      </trkpt>
      <trkpt lat="44.71571" lon="5.53031">
        <ele>649.03</ele>
        <time>2024-05-20T11:51:03Z</time>
      </trkpt>
      <trkpt lat="44.71579" lon="5.53037">
        <ele>649.99</ele>
        <time>2024-05-20T11:51:16Z</time>
      </trkpt>
      <trkpt lat="44.71585" lon="5.53052">
        <ele>650.95</ele>
        <time>2024-05-20T11:51:30Z</time>
      </trkpt>
      <trkpt lat="44.71593" lon="5.53064">
        <ele>651.91</ele>
        <time>2024-05-20T11:51:41Z</time>
      </trkpt>
      <trkpt lat="44.71593" lon="5.53064">
        <ele>651.91</ele>
        <time>2024-05-20T11:51:42Z</time>
      </trkpt>
      <trkpt lat="44.71599" lon="5.53076">
        <ele>652.87</ele>
        <time>2024-05-20T11:51:54Z</time>
      </trkpt>
      <trkpt lat="44.71601" lon="5.53087">
        <ele>654.31</ele>
        <time>2024-05-20T11:52:06Z</time>
      </trkpt>
      <trkpt lat="44.71603" lon="5.53093">
        <ele>654.8</ele>
        <time>2024-05-20T11:52:12Z</time>
      </trkpt>
      <trkpt lat="44.71608" lon="5.53111">
        <ele>656.72</ele>
        <time>2024-05-20T11:52:26Z</time>
      </trkpt>
      <trkpt lat="44.71612" lon="5.53127">
        <ele>657.68</ele>
        <time>2024-05-20T11:52:40Z</time>
      </trkpt>
      <trkpt lat="44.71613" lon="5.53144">
        <ele>659.6</ele>
        <time>2024-05-20T11:52:53Z</time>
      </trkpt>
      <trkpt lat="44.71612" lon="5.53148">
        <ele>660.08</ele>
        <time>2024-05-20T11:52:56Z</time>
      </trkpt>
      <trkpt lat="44.71618" lon="5.53163">
        <ele>661.04</ele>
        <time>2024-05-20T11:53:08Z</time>
      </trkpt>
      <trkpt lat="44.71628" lon="5.53177">
        <ele>661.52</ele>
        <time>2024-05-20T11:53:22Z</time>
      </trkpt>
      <trkpt lat="44.71632" lon="5.53181">
        <ele>662.01</ele>
        <time>2024-05-20T11:53:27Z</time>
      </trkpt>
      <trkpt lat="44.71646" lon="5.53186">
        <ele>663.93</ele>
        <time>2024-05-20T11:53:41Z</time>
      </trkpt>
      <trkpt lat="44.71656" lon="5.53194">
        <ele>664.41</ele>
        <time>2024-05-20T11:53:54Z</time>
      </trkpt>
      <trkpt lat="44.71664" lon="5.53201">
        <ele>666.81</ele>
        <time>2024-05-20T11:54:08Z</time>
      </trkpt>
      <trkpt lat="44.71672" lon="5.53202">
        <ele>668.73</ele>
        <time>2024-05-20T11:54:21Z</time>
      </trkpt>
      <trkpt lat="44.7168" lon="5.53212">
        <ele>669.22</ele>
        <time>2024-05-20T11:54:35Z</time>
      </trkpt>
      <trkpt lat="44.71689" lon="5.53227">
        <ele>668.73</ele>
        <time>2024-05-20T11:58:23Z</time>
      </trkpt>
      <trkpt lat="44.71698" lon="5.53229">
        <ele>669.7</ele>
        <time>2024-05-20T11:58:35Z</time>
      </trkpt>
      <trkpt lat="44.71705" lon="5.53236">
        <ele>669.22</ele>
        <time>2024-05-20T11:58:49Z</time>
      </trkpt>
      <trkpt lat="44.71707" lon="5.53238">
        <ele>671.62</ele>
        <time>2024-05-20T11:58:52Z</time>
      </trkpt>
      <trkpt lat="44.71712" lon="5.53243">
        <ele>673.54</ele>
        <time>2024-05-20T11:59:03Z</time>
      </trkpt>
      <trkpt lat="44.71719" lon="5.53255">
        <ele>673.54</ele>
        <time>2024-05-20T11:59:16Z</time>
      </trkpt>
      <trkpt lat="44.7172" lon="5.53256">
        <ele>675.46</ele>
        <time>2024-05-20T11:59:18Z</time>
      </trkpt>
      <trkpt lat="44.71727" lon="5.53266">
        <ele>676.91</ele>
        <time>2024-05-20T11:59:30Z</time>
      </trkpt>
      <trkpt lat="44.71732" lon="5.53268">
        <ele>677.39</ele>
        <time>2024-05-20T11:59:35Z</time>
      </trkpt>
      <trkpt lat="44.71741" lon="5.53279">
        <ele>679.31</ele>
        <time>2024-05-20T11:59:51Z</time>
      </trkpt>
      <trkpt lat="44.71749" lon="5.5329">
        <ele>681.23</ele>
        <time>2024-05-20T12:00:06Z</time>
      </trkpt>
      <trkpt lat="44.71757" lon="5.53297">
        <ele>682.19</ele>
        <time>2024-05-20T12:00:16Z</time>
      </trkpt>
      <trkpt lat="44.71761" lon="5.53301">
        <ele>683.15</ele>
        <time>2024-05-20T12:00:23Z</time>
      </trkpt>
      <trkpt lat="44.71772" lon="5.53306">
        <ele>686.04</ele>
        <time>2024-05-20T12:00:36Z</time>
      </trkpt>
      <trkpt lat="44.71777" lon="5.53308">
        <ele>686.52</ele>
        <time>2024-05-20T12:00:43Z</time>
      </trkpt>
      <trkpt lat="44.71786" lon="5.53314">
        <ele>687.96</ele>
        <time>2024-05-20T12:00:55Z</time>
      </trkpt>
      <trkpt lat="44.71792" lon="5.5333">
        <ele>689.88</ele>
        <time>2024-05-20T12:01:09Z</time>
      </trkpt>
      <trkpt lat="44.71796" lon="5.53338">
        <ele>691.33</ele>
        <time>2024-05-20T12:01:18Z</time>
      </trkpt>
      <trkpt lat="44.71802" lon="5.5335">
        <ele>694.21</ele>
        <time>2024-05-20T12:01:35Z</time>
      </trkpt>
      <trkpt lat="44.71811" lon="5.5336">
        <ele>695.65</ele>
        <time>2024-05-20T12:01:50Z</time>
      </trkpt>
      <trkpt lat="44.71818" lon="5.53369">
        <ele>697.57</ele>
        <time>2024-05-20T12:02:04Z</time>
      </trkpt>
      <trkpt lat="44.71826" lon="5.53375">
        <ele>699.02</ele>
        <time>2024-05-20T12:02:19Z</time>
      </trkpt>
      <trkpt lat="44.71835" lon="5.53381">
        <ele>701.9</ele>
        <time>2024-05-20T12:02:35Z</time>
      </trkpt>
      <trkpt lat="44.71841" lon="5.53386">
        <ele>703.34</ele>
        <time>2024-05-20T12:02:45Z</time>
      </trkpt>
      <trkpt lat="44.71848" lon="5.53391">
        <ele>705.75</ele>
        <time>2024-05-20T12:03:01Z</time>
      </trkpt>
      <trkpt lat="44.71858" lon="5.53392">
        <ele>708.15</ele>
        <time>2024-05-20T12:03:18Z</time>
      </trkpt>
      <trkpt lat="44.71868" lon="5.5339">
        <ele>709.59</ele>
        <time>2024-05-20T12:03:33Z</time>
      </trkpt>
      <trkpt lat="44.71876" lon="5.5339">
        <ele>711.51</ele>
        <time>2024-05-20T12:03:47Z</time>
      </trkpt>
      <trkpt lat="44.71886" lon="5.53385">
        <ele>714.4</ele>
        <time>2024-05-20T12:04:02Z</time>
      </trkpt>
      <trkpt lat="44.71891" lon="5.5338">
        <ele>715.84</ele>
        <time>2024-05-20T12:04:18Z</time>
      </trkpt>
      <trkpt lat="44.71897" lon="5.53373">
        <ele>717.76</ele>
        <time>2024-05-20T12:04:33Z</time>
      </trkpt>
      <trkpt lat="44.71905" lon="5.53366">
        <ele>719.2</ele>
        <time>2024-05-20T12:04:50Z</time>
      </trkpt>
      <trkpt lat="44.71914" lon="5.53363">
        <ele>721.13</ele>
        <time>2024-05-20T12:05:01Z</time>
      </trkpt>
      <trkpt lat="44.71926" lon="5.53364">
        <ele>722.09</ele>
        <time>2024-05-20T12:05:16Z</time>
      </trkpt>
      <trkpt lat="44.71936" lon="5.5337">
        <ele>724.01</ele>
        <time>2024-05-20T12:05:28Z</time>
      </trkpt>
      <trkpt lat="44.71947" lon="5.53375">
        <ele>725.45</ele>
        <time>2024-05-20T12:05:40Z</time>
      </trkpt>
      <trkpt lat="44.71954" lon="5.53377">
        <ele>726.41</ele>
        <time>2024-05-20T12:05:53Z</time>
      </trkpt>
      <trkpt lat="44.71963" lon="5.53377">
        <ele>727.86</ele>
        <time>2024-05-20T12:06:07Z</time>
      </trkpt>
      <trkpt lat="44.71973" lon="5.53374">
        <ele>729.3</ele>
        <time>2024-05-20T12:06:19Z</time>
      </trkpt>
      <trkpt lat="44.71983" lon="5.53369">
        <ele>730.74</ele>
        <time>2024-05-20T12:06:33Z</time>
      </trkpt>
      <trkpt lat="44.71992" lon="5.53366">
        <ele>733.14</ele>
        <time>2024-05-20T12:06:45Z</time>
      </trkpt>
      <trkpt lat="44.71994" lon="5.53363">
        <ele>733.14</ele>
        <time>2024-05-20T12:06:50Z</time>
      </trkpt>
      <trkpt lat="44.72004" lon="5.53362">
        <ele>735.07</ele>
        <time>2024-05-20T12:07:04Z</time>
      </trkpt>
      <trkpt lat="44.72012" lon="5.53368">
        <ele>737.47</ele>
        <time>2024-05-20T12:07:17Z</time>
      </trkpt>
      <trkpt lat="44.72015" lon="5.53383">
        <ele>737.95</ele>
        <time>2024-05-20T12:07:31Z</time>
      </trkpt>
      <trkpt lat="44.72019" lon="5.53391">
        <ele>737.95</ele>
        <time>2024-05-20T12:07:37Z</time>
      </trkpt>
      <trkpt lat="44.72021" lon="5.53394">
        <ele>737.95</ele>
        <time>2024-05-20T12:07:40Z</time>
      </trkpt>
      <trkpt lat="44.72024" lon="5.53404">
        <ele>737.95</ele>
        <time>2024-05-20T12:07:44Z</time>
      </trkpt>
      <trkpt lat="44.7203" lon="5.53416">
        <ele>737.95</ele>
        <time>2024-05-20T12:07:53Z</time>
      </trkpt>
      <trkpt lat="44.72032" lon="5.53419">
        <ele>737.95</ele>
        <time>2024-05-20T12:07:55Z</time>
      </trkpt>
      <trkpt lat="44.72038" lon="5.53429">
        <ele>738.43</ele>
        <time>2024-05-20T12:08:07Z</time>
      </trkpt>
      <trkpt lat="44.72041" lon="5.53441">
        <ele>738.43</ele>
        <time>2024-05-20T12:09:30Z</time>
      </trkpt>
      <trkpt lat="44.72049" lon="5.53451">
        <ele>738.43</ele>
        <time>2024-05-20T12:09:46Z</time>
      </trkpt>
      <trkpt lat="44.7206" lon="5.53467">
        <ele>737.95</ele>
        <time>2024-05-20T12:09:59Z</time>
      </trkpt>
      <trkpt lat="44.72062" lon="5.53468">
        <ele>738.43</ele>
        <time>2024-05-20T12:10:01Z</time>
      </trkpt>
      <trkpt lat="44.72078" lon="5.53471">
        <ele>739.87</ele>
        <time>2024-05-20T12:10:15Z</time>
      </trkpt>
      <trkpt lat="44.72091" lon="5.53469">
        <ele>739.87</ele>
        <time>2024-05-20T12:10:30Z</time>
      </trkpt>
      <trkpt lat="44.72103" lon="5.53464">
        <ele>742.28</ele>
        <time>2024-05-20T12:10:41Z</time>
      </trkpt>
      <trkpt lat="44.72114" lon="5.53464">
        <ele>743.24</ele>
        <time>2024-05-20T12:10:54Z</time>
      </trkpt>
      <trkpt lat="44.72119" lon="5.53474">
        <ele>744.68</ele>
        <time>2024-05-20T12:11:03Z</time>
      </trkpt>
      <trkpt lat="44.72126" lon="5.53488">
        <ele>746.12</ele>
        <time>2024-05-20T12:11:15Z</time>
      </trkpt>
      <trkpt lat="44.72135" lon="5.535">
        <ele>747.56</ele>
        <time>2024-05-20T12:11:28Z</time>
      </trkpt>
      <trkpt lat="44.72141" lon="5.53511">
        <ele>749</ele>
        <time>2024-05-20T12:11:38Z</time>
      </trkpt>
      <trkpt lat="44.72147" lon="5.53526">
        <ele>749.97</ele>
        <time>2024-05-20T12:11:50Z</time>
      </trkpt>
      <trkpt lat="44.72159" lon="5.53535">
        <ele>752.37</ele>
        <time>2024-05-20T12:12:05Z</time>
      </trkpt>
      <trkpt lat="44.72169" lon="5.53541">
        <ele>754.77</ele>
        <time>2024-05-20T12:12:19Z</time>
      </trkpt>
      <trkpt lat="44.72178" lon="5.53545">
        <ele>757.18</ele>
        <time>2024-05-20T12:12:34Z</time>
      </trkpt>
      <trkpt lat="44.72182" lon="5.53542">
        <ele>759.58</ele>
        <time>2024-05-20T12:12:49Z</time>
      </trkpt>
      <trkpt lat="44.7219" lon="5.53555">
        <ele>761.98</ele>
        <time>2024-05-20T12:13:06Z</time>
      </trkpt>
      <trkpt lat="44.72199" lon="5.5356">
        <ele>764.39</ele>
        <time>2024-05-20T12:13:20Z</time>
      </trkpt>
      <trkpt lat="44.72208" lon="5.53568">
        <ele>766.31</ele>
        <time>2024-05-20T12:13:36Z</time>
      </trkpt>
      <trkpt lat="44.72219" lon="5.53576">
        <ele>768.71</ele>
        <time>2024-05-20T12:13:50Z</time>
      </trkpt>
      <trkpt lat="44.72226" lon="5.53583">
        <ele>770.63</ele>
        <time>2024-05-20T12:14:02Z</time>
      </trkpt>
      <trkpt lat="44.7223" lon="5.53584">
        <ele>772.08</ele>
        <time>2024-05-20T12:14:13Z</time>
      </trkpt>
      <trkpt lat="44.72236" lon="5.53588">
        <ele>774.96</ele>
        <time>2024-05-20T12:14:28Z</time>
      </trkpt>
      <trkpt lat="44.72241" lon="5.53588">
        <ele>777.36</ele>
        <time>2024-05-20T12:14:43Z</time>
      </trkpt>
      <trkpt lat="44.72248" lon="5.53585">
        <ele>780.73</ele>
        <time>2024-05-20T12:15:00Z</time>
      </trkpt>
      <trkpt lat="44.72258" lon="5.53583">
        <ele>788.9</ele>
        <time>2024-05-20T12:18:32Z</time>
      </trkpt>
      <trkpt lat="44.72267" lon="5.53588">
        <ele>790.82</ele>
        <time>2024-05-20T12:18:51Z</time>
      </trkpt>
      <trkpt lat="44.72276" lon="5.53591">
        <ele>793.22</ele>
        <time>2024-05-20T12:19:05Z</time>
      </trkpt>
      <trkpt lat="44.72286" lon="5.53596">
        <ele>795.63</ele>
        <time>2024-05-20T12:19:19Z</time>
      </trkpt>
      <trkpt lat="44.72295" lon="5.53606">
        <ele>798.03</ele>
        <time>2024-05-20T12:19:34Z</time>
      </trkpt>
      <trkpt lat="44.72303" lon="5.53612">
        <ele>800.92</ele>
        <time>2024-05-20T12:19:49Z</time>
      </trkpt>
      <trkpt lat="44.72307" lon="5.53621">
        <ele>803.8</ele>
        <time>2024-05-20T12:20:05Z</time>
      </trkpt>
      <trkpt lat="44.7231" lon="5.53634">
        <ele>806.68</ele>
        <time>2024-05-20T12:20:21Z</time>
      </trkpt>
      <trkpt lat="44.72312" lon="5.5365">
        <ele>808.61</ele>
        <time>2024-05-20T12:20:36Z</time>
      </trkpt>
      <trkpt lat="44.72312" lon="5.5366">
        <ele>811.01</ele>
        <time>2024-05-20T12:20:49Z</time>
      </trkpt>
      <trkpt lat="44.72312" lon="5.53669">
        <ele>812.93</ele>
        <time>2024-05-20T12:21:02Z</time>
      </trkpt>
      <trkpt lat="44.72316" lon="5.53673">
        <ele>814.85</ele>
        <time>2024-05-20T12:21:17Z</time>
      </trkpt>
      <trkpt lat="44.72318" lon="5.53663">
        <ele>818.22</ele>
        <time>2024-05-20T12:21:32Z</time>
      </trkpt>
      <trkpt lat="44.72325" lon="5.53656">
        <ele>820.14</ele>
        <time>2024-05-20T12:21:47Z</time>
      </trkpt>
      <trkpt lat="44.72328" lon="5.53666">
        <ele>822.55</ele>
        <time>2024-05-20T12:22:03Z</time>
      </trkpt>
      <trkpt lat="44.72334" lon="5.53675">
        <ele>824.47</ele>
        <time>2024-05-20T12:22:18Z</time>
      </trkpt>
      <trkpt lat="44.7234" lon="5.53684">
        <ele>826.39</ele>
        <time>2024-05-20T12:22:32Z</time>
      </trkpt>
      <trkpt lat="44.72345" lon="5.53697">
        <ele>827.35</ele>
        <time>2024-05-20T12:22:45Z</time>
      </trkpt>
      <trkpt lat="44.72352" lon="5.53712">
        <ele>829.27</ele>
        <time>2024-05-20T12:23:00Z</time>
      </trkpt>
      <trkpt lat="44.72359" lon="5.53716">
        <ele>829.76</ele>
        <time>2024-05-20T12:23:08Z</time>
      </trkpt>
      <trkpt lat="44.72369" lon="5.53722">
        <ele>831.68</ele>
        <time>2024-05-20T12:23:22Z</time>
      </trkpt>
      <trkpt lat="44.72374" lon="5.53729">
        <ele>832.64</ele>
        <time>2024-05-20T12:23:35Z</time>
      </trkpt>
      <trkpt lat="44.72387" lon="5.53733">
        <ele>834.08</ele>
        <time>2024-05-20T12:23:50Z</time>
      </trkpt>
      <trkpt lat="44.72389" lon="5.53733">
        <ele>834.56</ele>
        <time>2024-05-20T12:23:52Z</time>
      </trkpt>
      <trkpt lat="44.72404" lon="5.53731">
        <ele>836</ele>
        <time>2024-05-20T12:24:08Z</time>
      </trkpt>
      <trkpt lat="44.72413" lon="5.53728">
        <ele>836.96</ele>
        <time>2024-05-20T12:24:19Z</time>
      </trkpt>
      <trkpt lat="44.72427" lon="5.53722">
        <ele>839.85</ele>
        <time>2024-05-20T12:24:35Z</time>
      </trkpt>
      <trkpt lat="44.72438" lon="5.53719">
        <ele>842.25</ele>
        <time>2024-05-20T12:24:51Z</time>
      </trkpt>
      <trkpt lat="44.72446" lon="5.53719">
        <ele>844.66</ele>
        <time>2024-05-20T12:25:05Z</time>
      </trkpt>
      <trkpt lat="44.72455" lon="5.53724">
        <ele>847.06</ele>
        <time>2024-05-20T12:25:18Z</time>
      </trkpt>
      <trkpt lat="44.72464" lon="5.53736">
        <ele>849.94</ele>
        <time>2024-05-20T12:25:34Z</time>
      </trkpt>
      <trkpt lat="44.72467" lon="5.53739">
        <ele>850.42</ele>
        <time>2024-05-20T12:25:39Z</time>
      </trkpt>
      <trkpt lat="44.72477" lon="5.53746">
        <ele>853.31</ele>
        <time>2024-05-20T12:25:56Z</time>
      </trkpt>
      <trkpt lat="44.72488" lon="5.53751">
        <ele>855.23</ele>
        <time>2024-05-20T12:26:12Z</time>
      </trkpt>
      <trkpt lat="44.72496" lon="5.53755">
        <ele>856.67</ele>
        <time>2024-05-20T12:26:26Z</time>
      </trkpt>
      <trkpt lat="44.72503" lon="5.53766">
        <ele>857.15</ele>
        <time>2024-05-20T12:26:38Z</time>
      </trkpt>
      <trkpt lat="44.72504" lon="5.53771">
        <ele>857.15</ele>
        <time>2024-05-20T12:26:41Z</time>
      </trkpt>
      <trkpt lat="44.72509" lon="5.5379">
        <ele>858.59</ele>
        <time>2024-05-20T12:26:55Z</time>
      </trkpt>
      <trkpt lat="44.72516" lon="5.5381">
        <ele>860.52</ele>
        <time>2024-05-20T12:27:10Z</time>
      </trkpt>
      <trkpt lat="44.72521" lon="5.53817">
        <ele>861.96</ele>
        <time>2024-05-20T12:27:25Z</time>
      </trkpt>
      <trkpt lat="44.72529" lon="5.53827">
        <ele>866.29</ele>
        <time>2024-05-20T12:29:43Z</time>
      </trkpt>
      <trkpt lat="44.72537" lon="5.53831">
        <ele>868.69</ele>
        <time>2024-05-20T12:29:58Z</time>
      </trkpt>
      <trkpt lat="44.72543" lon="5.53839">
        <ele>872.05</ele>
        <time>2024-05-20T12:30:14Z</time>
      </trkpt>
      <trkpt lat="44.72548" lon="5.53849">
        <ele>874.46</ele>
        <time>2024-05-20T12:30:29Z</time>
      </trkpt>
      <trkpt lat="44.72551" lon="5.53862">
        <ele>876.86</ele>
        <time>2024-05-20T12:30:43Z</time>
      </trkpt>
      <trkpt lat="44.72553" lon="5.53874">
        <ele>879.26</ele>
        <time>2024-05-20T12:30:57Z</time>
      </trkpt>
      <trkpt lat="44.72555" lon="5.53885">
        <ele>881.19</ele>
        <time>2024-05-20T12:31:09Z</time>
      </trkpt>
      <trkpt lat="44.72557" lon="5.53897">
        <ele>882.15</ele>
        <time>2024-05-20T12:31:23Z</time>
      </trkpt>
      <trkpt lat="44.72558" lon="5.53912">
        <ele>884.07</ele>
        <time>2024-05-20T12:31:38Z</time>
      </trkpt>
      <trkpt lat="44.72561" lon="5.5393">
        <ele>886.47</ele>
        <time>2024-05-20T12:31:53Z</time>
      </trkpt>
      <trkpt lat="44.72563" lon="5.53946">
        <ele>888.88</ele>
        <time>2024-05-20T12:32:08Z</time>
      </trkpt>
      <trkpt lat="44.72564" lon="5.53951">
        <ele>890.8</ele>
        <time>2024-05-20T12:32:15Z</time>
      </trkpt>
      <trkpt lat="44.72573" lon="5.53959">
        <ele>892.24</ele>
        <time>2024-05-20T12:32:29Z</time>
      </trkpt>
      <trkpt lat="44.72576" lon="5.5396">
        <ele>892.72</ele>
        <time>2024-05-20T12:32:32Z</time>
      </trkpt>
      <trkpt lat="44.72589" lon="5.53973">
        <ele>893.68</ele>
        <time>2024-05-20T12:32:49Z</time>
      </trkpt>
      <trkpt lat="44.72603" lon="5.53984">
        <ele>895.12</ele>
        <time>2024-05-20T12:33:06Z</time>
      </trkpt>
      <trkpt lat="44.72613" lon="5.53996">
        <ele>896.57</ele>
        <time>2024-05-20T12:33:20Z</time>
      </trkpt>
      <trkpt lat="44.72623" lon="5.54009">
        <ele>898.01</ele>
        <time>2024-05-20T12:33:34Z</time>
      </trkpt>
      <trkpt lat="44.72632" lon="5.54025">
        <ele>899.93</ele>
        <time>2024-05-20T12:33:50Z</time>
      </trkpt>
      <trkpt lat="44.7264" lon="5.54039">
        <ele>901.85</ele>
        <time>2024-05-20T12:34:04Z</time>
      </trkpt>
      <trkpt lat="44.72644" lon="5.5405">
        <ele>903.78</ele>
        <time>2024-05-20T12:34:16Z</time>
      </trkpt>
      <trkpt lat="44.7265" lon="5.54063">
        <ele>906.66</ele>
        <time>2024-05-20T12:34:32Z</time>
      </trkpt>
      <trkpt lat="44.72656" lon="5.54074">
        <ele>909.06</ele>
        <time>2024-05-20T12:34:47Z</time>
      </trkpt>
      <trkpt lat="44.72664" lon="5.54083">
        <ele>911.47</ele>
        <time>2024-05-20T12:35:01Z</time>
      </trkpt>
      <trkpt lat="44.72671" lon="5.54091">
        <ele>913.87</ele>
        <time>2024-05-20T12:35:16Z</time>
      </trkpt>
      <trkpt lat="44.72676" lon="5.54085">
        <ele>915.31</ele>
        <time>2024-05-20T12:35:31Z</time>
      </trkpt>
      <trkpt lat="44.72675" lon="5.54073">
        <ele>918.2</ele>
        <time>2024-05-20T12:35:48Z</time>
      </trkpt>
      <trkpt lat="44.72685" lon="5.54063">
        <ele>921.08</ele>
        <time>2024-05-20T12:36:05Z</time>
      </trkpt>
      <trkpt lat="44.72697" lon="5.54058">
        <ele>923.96</ele>
        <time>2024-05-20T12:36:22Z</time>
      </trkpt>
      <trkpt lat="44.7271" lon="5.54058">
        <ele>926.37</ele>
        <time>2024-05-20T12:36:38Z</time>
      </trkpt>
      <trkpt lat="44.72713" lon="5.54058">
        <ele>927.33</ele>
        <time>2024-05-20T12:36:47Z</time>
      </trkpt>
      <trkpt lat="44.72724" lon="5.54062">
        <ele>929.73</ele>
        <time>2024-05-20T12:37:02Z</time>
      </trkpt>
      <trkpt lat="44.72734" lon="5.54067">
        <ele>932.62</ele>
        <time>2024-05-20T12:37:17Z</time>
      </trkpt>
      <trkpt lat="44.72746" lon="5.54057">
        <ele>935.02</ele>
        <time>2024-05-20T12:37:34Z</time>
      </trkpt>
      <trkpt lat="44.72754" lon="5.54049">
        <ele>936.94</ele>
        <time>2024-05-20T12:37:48Z</time>
      </trkpt>
      <trkpt lat="44.72766" lon="5.5404">
        <ele>939.83</ele>
        <time>2024-05-20T12:38:06Z</time>
      </trkpt>
      <trkpt lat="44.72776" lon="5.54031">
        <ele>942.23</ele>
        <time>2024-05-20T12:38:20Z</time>
      </trkpt>
      <trkpt lat="44.72787" lon="5.54025">
        <ele>944.63</ele>
        <time>2024-05-20T12:38:35Z</time>
      </trkpt>
      <trkpt lat="44.72795" lon="5.54015">
        <ele>947.52</ele>
        <time>2024-05-20T12:38:51Z</time>
      </trkpt>
      <trkpt lat="44.72805" lon="5.54005">
        <ele>949.92</ele>
        <time>2024-05-20T12:39:05Z</time>
      </trkpt>
      <trkpt lat="44.72811" lon="5.54">
        <ele>951.36</ele>
        <time>2024-05-20T12:39:17Z</time>
      </trkpt>
      <trkpt lat="44.72812" lon="5.53999">
        <ele>951.36</ele>
        <time>2024-05-20T12:39:19Z</time>
      </trkpt>
      <trkpt lat="44.72819" lon="5.53993">
        <ele>952.8</ele>
        <time>2024-05-20T12:39:28Z</time>
      </trkpt>
      <trkpt lat="44.72831" lon="5.53988">
        <ele>954.25</ele>
        <time>2024-05-20T12:39:44Z</time>
      </trkpt>
      <trkpt lat="44.72841" lon="5.53991">
        <ele>956.65</ele>
        <time>2024-05-20T12:39:56Z</time>
      </trkpt>
      <trkpt lat="44.72856" lon="5.53993">
        <ele>958.57</ele>
        <time>2024-05-20T12:40:11Z</time>
      </trkpt>
      <trkpt lat="44.72869" lon="5.53994">
        <ele>959.05</ele>
        <time>2024-05-20T12:40:22Z</time>
      </trkpt>
      <trkpt lat="44.72883" lon="5.53989">
        <ele>960.98</ele>
        <time>2024-05-20T12:40:38Z</time>
      </trkpt>
      <trkpt lat="44.72893" lon="5.5398">
        <ele>963.38</ele>
        <time>2024-05-20T12:40:52Z</time>
      </trkpt>
      <trkpt lat="44.72903" lon="5.53973">
        <ele>965.3</ele>
        <time>2024-05-20T12:41:06Z</time>
      </trkpt>
      <trkpt lat="44.72914" lon="5.53967">
        <ele>967.7</ele>
        <time>2024-05-20T12:41:20Z</time>
      </trkpt>
      <trkpt lat="44.72924" lon="5.5396">
        <ele>970.11</ele>
        <time>2024-05-20T12:41:35Z</time>
      </trkpt>
      <trkpt lat="44.72933" lon="5.5396">
        <ele>972.51</ele>
        <time>2024-05-20T12:41:49Z</time>
      </trkpt>
      <trkpt lat="44.72942" lon="5.5396">
        <ele>974.43</ele>
        <time>2024-05-20T12:42:04Z</time>
      </trkpt>
      <trkpt lat="44.72951" lon="5.53962">
        <ele>976.36</ele>
        <time>2024-05-20T12:45:56Z</time>
      </trkpt>
      <trkpt lat="44.72965" lon="5.53962">
        <ele>979.24</ele>
        <time>2024-05-20T12:46:12Z</time>
      </trkpt>
      <trkpt lat="44.72977" lon="5.5397">
        <ele>981.64</ele>
        <time>2024-05-20T12:46:28Z</time>
      </trkpt>
      <trkpt lat="44.7299" lon="5.5398">
        <ele>984.05</ele>
        <time>2024-05-20T12:46:44Z</time>
      </trkpt>
      <trkpt lat="44.72999" lon="5.53989">
        <ele>985.97</ele>
        <time>2024-05-20T12:46:58Z</time>
      </trkpt>
      <trkpt lat="44.73009" lon="5.53999">
        <ele>988.37</ele>
        <time>2024-05-20T12:47:14Z</time>
      </trkpt>
      <trkpt lat="44.7302" lon="5.54007">
        <ele>990.3</ele>
        <time>2024-05-20T12:47:28Z</time>
      </trkpt>
      <trkpt lat="44.73029" lon="5.54015">
        <ele>992.22</ele>
        <time>2024-05-20T12:47:41Z</time>
      </trkpt>
      <trkpt lat="44.73038" lon="5.54021">
        <ele>994.14</ele>
        <time>2024-05-20T12:47:53Z</time>
      </trkpt>
      <trkpt lat="44.73048" lon="5.54032">
        <ele>995.58</ele>
        <time>2024-05-20T12:48:08Z</time>
      </trkpt>
      <trkpt lat="44.73058" lon="5.54051">
        <ele>997.02</ele>
        <time>2024-05-20T12:48:24Z</time>
      </trkpt>
      <trkpt lat="44.73067" lon="5.54064">
        <ele>998.47</ele>
        <time>2024-05-20T12:48:38Z</time>
      </trkpt>
      <trkpt lat="44.73069" lon="5.54065">
        <ele>998.95</ele>
        <time>2024-05-20T12:48:40Z</time>
      </trkpt>
      <trkpt lat="44.73073" lon="5.5406">
        <ele>999.91</ele>
        <time>2024-05-20T12:48:51Z</time>
      </trkpt>
      <trkpt lat="44.73069" lon="5.5404">
        <ele>1000.87</ele>
        <time>2024-05-20T12:49:08Z</time>
      </trkpt>
      <trkpt lat="44.73078" lon="5.54049">
        <ele>1002.31</ele>
        <time>2024-05-20T12:49:22Z</time>
      </trkpt>
    </trkseg>
  </trk>
</gpx>